AA2910 / N817AW 7700 Squawk Report (10th of July, 2021)

Aircraft A319 Reg No. N817AW Age 20 years old
Model A319 Jet engines 2 First flight 01-11-00
Registered 08-04-15 Rollout 10-00 Delivered 22-11-00
Construction No. 1373 Line No. N/A Series 132
ADSHEX AB2372 Airline name American Airlines Owner US Bank NA Trustee
Airfield based Phoenix-Sky Harbor~AZ~N First tracked N/A

Flight history for N817AW

Route Flight No Date Playback
Dallas Fort Worth (DFW) - Port Columbus (CMH) AA641 2021-08-01 01:56:00
Des Moines Intl (DSM) - Dallas Fort Worth (DFW) AA2467 2021-07-31 22:14:00
Phoenix Sky Harbor Intl (PHX) - Des Moines Intl (DSM) AA1972 2021-07-31 19:44:00
Norman Y Mineta San Jose Intl (SJC) - Phoenix Sky Harbor Intl (PHX) AA761 2021-07-31 15:35:00
Phoenix Sky Harbor Intl (PHX) - Norman Y Mineta San Jose Intl (SJC) AA2108 2021-07-31 12:33:00
Phoenix Sky Harbor Intl (PHX) - Denver Intl (DEN) - Phoenix Sky Harbor Intl (PHX) AA2923 2021-07-31 01:19:00
Phoenix Sky Harbor Intl (PHX) - Norman Y Mineta San Jose Intl (SJC) - Phoenix Sky Harbor Intl (PHX) AA2049 2021-07-30 19:19:00
Minneapolis-St.Paul Intl (MSP) - Phoenix Sky Harbor Intl (PHX) AA1040 2021-07-30 14:14:00
Phoenix Sky Harbor Intl (PHX) - Minneapolis-St.Paul Intl (MSP) AA1560 2021-07-30 03:01:00
Phoenix Sky Harbor Intl (PHX) - Boise Air Terminal (BOI) - Phoenix Sky Harbor Intl (PHX) AA1759 2021-07-29 23:57:00
Des Moines Intl (DSM) - Phoenix Sky Harbor Intl (PHX) AA525 2021-07-29 14:55:00
Dallas Fort Worth (DFW) - Des Moines Intl (DSM) AA2388 2021-07-28 22:22:00
Mc Allen Miller Intl (MFE) - Dallas Fort Worth (DFW) AA1197 2021-07-28 17:28:00
Dallas Fort Worth (DFW) - Mc Allen Miller Intl (MFE) AA2112 2021-07-28 16:09:00
Dallas Fort Worth (DFW) - Tulsa Intl (TUL) - Dallas Fort Worth (DFW) AA452 2021-07-27 21:09:00
Eppley Airfield (OMA) - Dallas Fort Worth (DFW) AA2540 2021-07-27 14:04:00
Dallas Fort Worth (DFW) - Eppley Airfield (OMA) AA2628 2021-07-27 11:47:00
Dallas Fort Worth (DFW) - Tulsa Intl (TUL) - Dallas Fort Worth (DFW) AA557 2021-07-27 00:25:00
Dallas Fort Worth (DFW) - Greenville-Spartanburg International (GSP) - Dallas Fort Worth (DFW) AA2407 2021-07-26 20:36:00
Des Moines Intl (DSM) - Dallas Fort Worth (DFW) AA2326 2021-07-26 14:04:00
Time Lat Lon Altitude Heading Speed Vertical Rate
2021-07-10 19:00:20 GMT 35.043049 -89.980026 0 329 2 0
2021-07-10 19:00:19 GMT 35.043072 -89.980003 0 329 2 0
2021-07-10 19:00:17 GMT 35.043049 -89.980019 0 329 2 0
2021-07-10 19:00:15 GMT 35.043018 -89.980049 0 328 0 0
2021-07-10 19:00:14 GMT 35.043030 -89.980049 0 328 0 0
2021-07-10 19:00:13 GMT 35.043030 -89.980057 0 328 0 0
2021-07-10 19:00:12 GMT 35.043018 -89.979958 0 326 3 0
2021-07-10 19:00:08 GMT 35.043041 -89.980087 0 326 4 0
2021-07-10 19:00:06 GMT 35.043041 -89.980049 0 326 4 0
2021-07-10 19:00:05 GMT 35.043041 -89.980072 0 326 4 0
2021-07-10 19:00:04 GMT 35.043049 -89.980179 0 326 1 0
2021-07-10 19:00:02 GMT 35.043049 -89.980179 0 326 1 0
2021-07-10 19:00:01 GMT 35.043060 -89.980186 0 325 2 0
2021-07-10 18:59:59 GMT 35.043049 -89.980209 0 325 2 0
2021-07-10 18:59:58 GMT 35.042999 -89.980179 0 325 2 0
2021-07-10 18:59:57 GMT 35.043011 -89.980186 0 323 2 0
2021-07-10 18:59:55 GMT 35.043011 -89.980202 0 323 2 0
2021-07-10 18:59:53 GMT 35.043011 -89.980209 0 322 3 0
2021-07-10 18:59:51 GMT 35.043011 -89.980309 0 321 3 0
2021-07-10 18:59:50 GMT 35.042999 -89.980247 0 321 3 0
2021-07-10 18:59:48 GMT 35.043011 -89.980293 0 321 3 0
2021-07-10 18:59:47 GMT 35.043018 -89.980309 0 321 3 0
2021-07-10 18:59:46 GMT 35.042980 -89.980293 0 321 5 0
2021-07-10 18:59:44 GMT 35.042999 -89.980339 0 321 5 0
2021-07-10 18:59:43 GMT 35.043049 -89.980461 0 319 3 0
2021-07-10 18:59:40 GMT 35.042992 -89.980537 0 319 6 0
2021-07-10 18:59:38 GMT 35.043049 -89.980530 0 319 6 0
2021-07-10 18:59:37 GMT 35.043030 -89.980530 0 319 6 0
2021-07-10 18:59:33 GMT 35.042931 -89.980682 0 319 8 0
2021-07-10 18:59:31 GMT 35.042889 -89.980659 0 319 8 0
2021-07-10 18:59:30 GMT 35.042858 -89.980637 0 319 8 0
2021-07-10 18:59:29 GMT 35.042801 -89.980652 0 316 8 0
2021-07-10 18:59:27 GMT 35.042789 -89.980637 0 313 10 0
2021-07-10 18:59:26 GMT 35.042751 -89.980598 0 313 10 0
2021-07-10 18:59:25 GMT 35.042721 -89.980568 0 313 10 0
2021-07-10 18:59:24 GMT 35.042648 -89.980568 0 307 12 0
2021-07-10 18:59:22 GMT 35.042610 -89.980522 0 307 12 0
2021-07-10 18:59:21 GMT 35.042530 -89.980362 0 306 10 0
2021-07-10 18:59:19 GMT 35.042488 -89.980324 0 306 10 0
2021-07-10 18:59:18 GMT 35.042431 -89.980324 0 301 10 0
2021-07-10 18:59:17 GMT 35.042271 -89.980049 0 300 11 0
2021-07-10 18:59:15 GMT 35.042358 -89.980202 0 300 11 0
2021-07-10 18:59:14 GMT 35.042301 -89.980103 0 300 11 0
2021-07-10 18:59:12 GMT 35.042290 -89.980042 0 297 11 0
2021-07-10 18:59:11 GMT 35.042252 -89.979988 0 297 11 0
2021-07-10 18:59:09 GMT 35.042141 -89.979919 0 292 10 0
2021-07-10 18:59:08 GMT 35.042122 -89.979858 0 292 10 0
2021-07-10 18:59:07 GMT 35.042110 -89.979828 0 290 15 0
2021-07-10 18:59:05 GMT 35.042068 -89.979668 0 279 10 0
2021-07-10 18:59:04 GMT 35.042049 -89.979622 0 279 10 0
2021-07-10 18:59:02 GMT 35.041920 -89.979584 0 277 13 0
2021-07-10 18:59:00 GMT 35.041981 -89.979446 0 288 11 -32
2021-07-10 18:58:59 GMT 35.042011 -89.979340 0 301 9 -32
2021-07-10 18:58:58 GMT 35.042000 -89.979286 0 301 9 -32
2021-07-10 18:58:57 GMT 35.041981 -89.979149 0 303 7 -32
2021-07-10 18:58:55 GMT 35.041988 -89.979149 0 302 10 -32
2021-07-10 18:58:54 GMT 35.041920 -89.979179 0 297 12 -32
2021-07-10 18:58:52 GMT 35.041889 -89.979019 0 301 10 -32
2021-07-10 18:58:51 GMT 35.041851 -89.978989 0 301 10 -32
2021-07-10 18:58:49 GMT 35.041821 -89.978889 0 308 10 -32
2021-07-10 18:58:47 GMT 35.041771 -89.978783 0 318 8 -32
2021-07-10 18:58:46 GMT 35.041752 -89.978729 0 325 7 -32
2021-07-10 18:58:44 GMT 35.041698 -89.978706 0 317 9 -32
2021-07-10 18:58:43 GMT 35.041691 -89.978683 0 321 11 -32
2021-07-10 18:58:42 GMT 35.041649 -89.978630 0 326 10 -32
2021-07-10 18:58:40 GMT 35.041569 -89.978523 0 339 7 -32
2021-07-10 18:58:39 GMT 35.041531 -89.978508 0 337 7 -32
2021-07-10 18:58:37 GMT 35.041470 -89.978477 0 337 7 -32
2021-07-10 18:58:36 GMT 35.041451 -89.978477 0 337 8 -32
2021-07-10 18:58:34 GMT 35.041382 -89.978416 0 357 6 -32
2021-07-10 18:58:32 GMT 35.041340 -89.978394 0 0 8 -32
2021-07-10 18:58:31 GMT 35.041248 -89.978409 0 349 7 -32
2021-07-10 18:58:29 GMT 35.041210 -89.978394 0 342 5 -32
2021-07-10 18:58:27 GMT 35.041161 -89.978401 0 350 6 -32
2021-07-10 18:58:26 GMT 35.041149 -89.978371 0 355 6 -32
2021-07-10 18:58:25 GMT 35.041088 -89.978363 0 1 8 -32
2021-07-10 18:58:23 GMT 35.041050 -89.978348 0 7 8 -32
2021-07-10 18:58:22 GMT 35.040981 -89.978333 0 7 8 -32
2021-07-10 18:58:20 GMT 35.040939 -89.978348 0 3 7 -32
2021-07-10 18:58:19 GMT 35.040932 -89.978394 0 357 10 -32
2021-07-10 18:58:17 GMT 35.040810 -89.978378 0 356 7 -64
2021-07-10 18:58:16 GMT 35.040771 -89.978394 0 353 7 -64
2021-07-10 18:58:15 GMT 35.040760 -89.978394 0 352 9 -64
2021-07-10 18:58:13 GMT 35.040668 -89.978363 0 2 10 -64
2021-07-10 18:58:12 GMT 35.040642 -89.978348 0 1 13 -64
2021-07-10 18:58:11 GMT 35.040531 -89.978378 0 356 15 -64
2021-07-10 18:58:09 GMT 35.040459 -89.978371 0 359 14 -64
2021-07-10 18:58:08 GMT 35.040321 -89.978348 0 10 15 -64
2021-07-10 18:58:06 GMT 35.040260 -89.978378 0 1 15 -64
2021-07-10 18:58:05 GMT 35.040199 -89.978401 0 356 18 -64
2021-07-10 18:58:04 GMT 35.040031 -89.978401 0 353 16 -64
2021-07-10 18:58:02 GMT 35.039959 -89.978363 0 1 17 -64
2021-07-10 18:58:01 GMT 35.039879 -89.978348 0 5 17 -64
2021-07-10 18:57:59 GMT 35.039719 -89.978394 0 357 14 -64
2021-07-10 18:57:58 GMT 35.039680 -89.978416 0 351 16 -64
2021-07-10 18:57:56 GMT 35.039532 -89.978378 0 353 16 -64
2021-07-10 18:57:55 GMT 35.039459 -89.978371 0 349 16 -64
2021-07-10 18:57:53 GMT 35.039322 -89.978363 0 331 14 0
2021-07-10 18:57:52 GMT 35.039261 -89.978333 0 328 14 0
2021-07-10 18:57:50 GMT 35.039139 -89.978256 0 316 13 0
2021-07-10 18:57:49 GMT 35.039082 -89.978233 0 305 13 0
2021-07-10 18:57:48 GMT 35.039040 -89.978172 0 300 13 0
2021-07-10 18:57:46 GMT 35.038960 -89.978050 0 283 11 0
2021-07-10 18:57:45 GMT 35.038952 -89.977989 0 281 12 0
2021-07-10 18:57:44 GMT 35.038929 -89.977882 0 282 14 0
2021-07-10 18:57:42 GMT 35.038929 -89.977798 0 288 14 0
2021-07-10 18:57:41 GMT 35.038910 -89.977722 0 288 13 0
2021-07-10 18:57:40 GMT 35.038879 -89.977654 0 287 13 0
2021-07-10 18:57:39 GMT 35.038849 -89.977524 0 292 13 0
2021-07-10 18:57:37 GMT 35.038818 -89.977432 0 296 11 0
2021-07-10 18:57:36 GMT 35.038799 -89.977341 0 303 14 0
2021-07-10 18:57:34 GMT 35.038780 -89.977303 0 298 16 0
2021-07-10 18:57:33 GMT 35.038750 -89.977211 0 298 15 0
2021-07-10 18:57:31 GMT 35.038658 -89.977058 0 269 14 0
2021-07-10 18:57:30 GMT 35.038651 -89.976997 0 262 15 0
2021-07-10 18:57:28 GMT 35.038658 -89.976822 0 244 12 0
2021-07-10 18:57:27 GMT 35.038658 -89.976768 0 241 13 0
2021-07-10 18:57:25 GMT 35.038731 -89.976669 0 245 15 0
2021-07-10 18:57:24 GMT 35.038738 -89.976540 0 230 12 0
2021-07-10 18:57:23 GMT 35.038769 -89.976479 0 222 11 0
2021-07-10 18:57:22 GMT 35.038818 -89.976372 0 206 13 0
2021-07-10 18:57:20 GMT 35.038891 -89.976318 0 210 11 0
2021-07-10 18:57:18 GMT 35.038979 -89.976250 0 206 12 0
2021-07-10 18:57:17 GMT 35.039028 -89.976212 0 201 12 0
2021-07-10 18:57:15 GMT 35.039120 -89.976181 0 209 12 0
2021-07-10 18:57:14 GMT 35.039162 -89.976112 0 196 12 0
2021-07-10 18:57:13 GMT 35.039280 -89.976059 0 192 13 0
2021-07-10 18:57:11 GMT 35.039341 -89.976021 0 189 11 0
2021-07-10 18:57:10 GMT 35.039398 -89.976028 0 198 10 0
2021-07-10 18:57:08 GMT 35.039478 -89.975998 0 195 13 0
2021-07-10 18:57:07 GMT 35.039539 -89.975937 0 184 11 0
2021-07-10 18:57:06 GMT 35.039589 -89.975952 0 187 12 0
2021-07-10 18:57:04 GMT 35.039711 -89.975937 0 187 11 0
2021-07-10 18:57:02 GMT 35.039822 -89.975899 0 183 12 0
2021-07-10 18:57:01 GMT 35.039860 -89.975891 0 177 13 32
2021-07-10 18:57:00 GMT 35.039982 -89.975891 0 180 12 32
2021-07-10 18:56:58 GMT 35.040051 -89.975906 0 189 11 -32
2021-07-10 18:56:57 GMT 35.040089 -89.975899 0 186 11 -32
2021-07-10 18:56:55 GMT 35.040199 -89.975868 0 176 10 -32
2021-07-10 18:56:54 GMT 35.040249 -89.975891 0 181 11 0
2021-07-10 18:56:52 GMT 35.040371 -89.975891 0 176 10 0
2021-07-10 18:56:51 GMT 35.040401 -89.975868 0 175 11 0
2021-07-10 18:56:50 GMT 35.040451 -89.975883 0 185 10 0
2021-07-10 18:56:48 GMT 35.040562 -89.975883 0 206 6 0
2021-07-10 18:56:46 GMT 35.040642 -89.975891 0 303 3 0
2021-07-10 18:56:44 GMT 35.040668 -89.975899 0 310 3 0
2021-07-10 18:56:43 GMT 35.040710 -89.975899 0 310 0 0
2021-07-10 18:56:42 GMT 35.040699 -89.975891 0 311 0 0
2021-07-10 18:56:41 GMT 35.040710 -89.975891 0 309 1 0
2021-07-10 18:56:39 GMT 35.040691 -89.975883 0 307 1 0
2021-07-10 18:56:37 GMT 35.040691 -89.975891 0 306 1 0
2021-07-10 18:56:36 GMT 35.040668 -89.975883 0 306 1 0
2021-07-10 18:56:31 GMT 35.040680 -89.975891 0 308 0 0
2021-07-10 18:56:30 GMT 35.040691 -89.975899 0 308 1 0
2021-07-10 18:56:28 GMT 35.040661 -89.975891 0 310 2 0
2021-07-10 18:56:27 GMT 35.040691 -89.975891 0 310 0 0
2021-07-10 18:56:23 GMT 35.040699 -89.975891 0 309 0 0
2021-07-10 18:56:20 GMT 35.040699 -89.975891 0 309 0 0
2021-07-10 18:56:16 GMT 35.040699 -89.975899 0 307 0 0
2021-07-10 18:56:14 GMT 35.040710 -89.975891 0 307 0 0
2021-07-10 18:56:12 GMT 35.040699 -89.975922 0 307 0 0
2021-07-10 18:56:10 GMT 35.040699 -89.975906 0 307 0 0
2021-07-10 18:56:09 GMT 35.040691 -89.975922 0 307 1 0
2021-07-10 18:56:07 GMT 35.040691 -89.975883 0 308 2 0
2021-07-10 18:56:06 GMT 35.040691 -89.975906 0 308 1 0
2021-07-10 18:56:05 GMT 35.040722 -89.975922 0 308 0 0
2021-07-10 18:56:03 GMT 35.040730 -89.975922 0 308 1 0
2021-07-10 18:56:02 GMT 35.040710 -89.975929 0 308 1 0
2021-07-10 18:55:59 GMT 35.040699 -89.975906 0 307 1 0
2021-07-10 18:55:58 GMT 35.040699 -89.975906 0 307 1 0
2021-07-10 18:55:56 GMT 35.040680 -89.975922 0 307 1 0
2021-07-10 18:55:54 GMT 35.040680 -89.975899 0 309 1 0
2021-07-10 18:55:52 GMT 35.040699 -89.975899 0 309 0 0
2021-07-10 18:55:51 GMT 35.040691 -89.975906 0 307 0 0
2021-07-10 18:55:50 GMT 35.040699 -89.975899 0 307 0 0
2021-07-10 18:55:48 GMT 35.040730 -89.975899 0 301 1 0
2021-07-10 18:55:46 GMT 35.040722 -89.975906 0 299 1 0
2021-07-10 18:55:45 GMT 35.040699 -89.975937 0 297 1 0
2021-07-10 18:55:43 GMT 35.040722 -89.975906 0 297 2 0
2021-07-10 18:55:37 GMT 35.040691 -89.975906 0 296 0 0
2021-07-10 18:55:33 GMT 35.040699 -89.975899 0 296 0 0
2021-07-10 18:55:32 GMT 35.040691 -89.975906 0 296 1 0
2021-07-10 18:55:31 GMT 35.040699 -89.975906 0 297 0 0
2021-07-10 18:55:29 GMT 35.040710 -89.975899 0 297 1 0
2021-07-10 18:55:28 GMT 35.040680 -89.975906 0 297 2 0
2021-07-10 18:55:26 GMT 35.040699 -89.975899 0 297 1 0
2021-07-10 18:55:25 GMT 35.040710 -89.975899 0 296 2 0
2021-07-10 18:55:24 GMT 35.040680 -89.975906 0 296 0 0
2021-07-10 18:55:22 GMT 35.040680 -89.975906 0 296 2 0
2021-07-10 18:55:21 GMT 35.040710 -89.975929 0 295 1 0
2021-07-10 18:55:19 GMT 35.040680 -89.975906 0 295 0 0
2021-07-10 18:55:18 GMT 35.040691 -89.975922 0 295 0 0
2021-07-10 18:55:16 GMT 35.040668 -89.975922 0 294 1 0
2021-07-10 18:55:15 GMT 35.040661 -89.975929 0 294 2 0
2021-07-10 18:55:11 GMT 35.040691 -89.975906 0 295 0 0
2021-07-10 18:55:10 GMT 35.040680 -89.975899 0 295 0 0
2021-07-10 18:55:08 GMT 35.040668 -89.975899 0 295 1 0
2021-07-10 18:55:07 GMT 35.040668 -89.975906 0 296 2 0
2021-07-10 18:55:06 GMT 35.040710 -89.975899 0 295 1 0
2021-07-10 18:55:04 GMT 35.040710 -89.975906 0 295 1 0
2021-07-10 18:55:02 GMT 35.040691 -89.975922 0 295 1 0
2021-07-10 18:55:00 GMT 35.040691 -89.975937 0 297 2 0
2021-07-10 18:54:59 GMT 35.040680 -89.975899 0 299 1 0
2021-07-10 18:54:58 GMT 35.040699 -89.975891 0 300 0 0
2021-07-10 18:54:56 GMT 35.040710 -89.975861 0 298 3 0
2021-07-10 18:54:55 GMT 35.040699 -89.975883 0 294 2 0
2021-07-10 18:54:54 GMT 35.040710 -89.975929 0 294 1 0
2021-07-10 18:54:52 GMT 35.040699 -89.975929 0 294 1 0
2021-07-10 18:54:51 GMT 35.040710 -89.975929 0 294 2 0
2021-07-10 18:54:49 GMT 35.040691 -89.975891 0 294 0 0
2021-07-10 18:54:45 GMT 35.040691 -89.975883 0 294 1 0
2021-07-10 18:54:44 GMT 35.040691 -89.975899 0 294 0 0
2021-07-10 18:54:37 GMT 35.040691 -89.975906 0 291 0 0
2021-07-10 18:54:35 GMT 35.040691 -89.975906 0 289 0 0
2021-07-10 18:54:34 GMT 35.040691 -89.975922 0 289 0 0
2021-07-10 18:54:26 GMT 35.040691 -89.975906 0 288 0 0
2021-07-10 18:54:23 GMT 35.040699 -89.975899 0 288 0 0
2021-07-10 18:54:22 GMT 35.040691 -89.975906 0 285 0 0
2021-07-10 18:54:20 GMT 35.040699 -89.975899 0 285 0 0
2021-07-10 18:54:15 GMT 35.040710 -89.975899 0 284 0 0
2021-07-10 18:54:11 GMT 35.040699 -89.975899 0 284 0 0
2021-07-10 18:54:09 GMT 35.040699 -89.975906 0 281 0 0
2021-07-10 18:54:07 GMT 35.040699 -89.975899 0 281 1 0
2021-07-10 18:54:06 GMT 35.040699 -89.975883 0 281 1 0
2021-07-10 18:54:04 GMT 35.040691 -89.975906 0 274 0 0
2021-07-10 18:54:03 GMT 35.040699 -89.975906 0 274 1 0
2021-07-10 18:54:02 GMT 35.040691 -89.975922 0 273 1 0
2021-07-10 18:53:55 GMT 35.040691 -89.975899 0 272 0 0
2021-07-10 18:53:53 GMT 35.040699 -89.975906 0 272 0 0
2021-07-10 18:53:49 GMT 35.040691 -89.975906 0 271 1 0
2021-07-10 18:53:48 GMT 35.040710 -89.975899 0 273 0 0
2021-07-10 18:53:46 GMT 35.040722 -89.975906 0 275 0 0
2021-07-10 18:53:45 GMT 35.040722 -89.975922 0 274 1 0
2021-07-10 18:53:43 GMT 35.040710 -89.975906 0 274 1 0
2021-07-10 18:53:41 GMT 35.040691 -89.975899 0 269 1 0
2021-07-10 18:53:39 GMT 35.040668 -89.975899 0 269 1 0
2021-07-10 18:53:37 GMT 35.040691 -89.975899 0 269 1 0
2021-07-10 18:53:36 GMT 35.040668 -89.975906 0 271 1 0
2021-07-10 18:53:35 GMT 35.040680 -89.975922 0 276 2 0
2021-07-10 18:53:33 GMT 35.040680 -89.975929 0 278 3 0
2021-07-10 18:53:32 GMT 35.040699 -89.975937 0 281 3 0
2021-07-10 18:53:31 GMT 35.040722 -89.975891 0 281 0 0
2021-07-10 18:53:29 GMT 35.040730 -89.975899 0 275 1 0
2021-07-10 18:53:27 GMT 35.040722 -89.975883 0 266 3 0
2021-07-10 18:53:26 GMT 35.040710 -89.975906 0 263 1 0
2021-07-10 18:53:25 GMT 35.040699 -89.975922 0 262 1 0
2021-07-10 18:53:23 GMT 35.040691 -89.975891 0 262 1 0
2021-07-10 18:53:22 GMT 35.040691 -89.975906 0 262 0 0
2021-07-10 18:53:21 GMT 35.040699 -89.975922 0 262 2 0
2021-07-10 18:53:19 GMT 35.040680 -89.975899 0 262 0 0
2021-07-10 18:53:18 GMT 35.040691 -89.975906 0 262 0 0
2021-07-10 18:53:17 GMT 35.040699 -89.975960 0 262 2 0
2021-07-10 18:53:15 GMT 35.040680 -89.975952 0 262 3 0
2021-07-10 18:53:14 GMT 35.040710 -89.975906 0 264 1 0
2021-07-10 18:53:13 GMT 35.040699 -89.975883 0 260 1 0
2021-07-10 18:53:11 GMT 35.040699 -89.975883 0 262 2 0
2021-07-10 18:53:09 GMT 35.040699 -89.975906 0 266 0 0
2021-07-10 18:53:08 GMT 35.040699 -89.975899 0 266 0 0
2021-07-10 18:53:07 GMT 35.040710 -89.975899 0 261 1 0
2021-07-10 18:53:05 GMT 35.040710 -89.975922 0 253 1 32
2021-07-10 18:53:04 GMT 35.040722 -89.975952 0 245 4 32
2021-07-10 18:53:03 GMT 35.040710 -89.975906 0 220 3 32
2021-07-10 18:53:01 GMT 35.040699 -89.975952 0 199 4 32
2021-07-10 18:53:00 GMT 35.040691 -89.975922 0 194 2 32
2021-07-10 18:52:58 GMT 35.040691 -89.975899 0 193 0 32
2021-07-10 18:52:57 GMT 35.040710 -89.975899 0 183 4 32
2021-07-10 18:52:55 GMT 35.040741 -89.975899 0 185 10 32
2021-07-10 18:52:53 GMT 35.040852 -89.975891 0 179 13 32
2021-07-10 18:52:52 GMT 35.040901 -89.975883 0 175 15 32
2021-07-10 18:52:51 GMT 35.041039 -89.975861 0 174 22 32
2021-07-10 18:52:49 GMT 35.041149 -89.975891 0 175 22 32
2021-07-10 18:52:48 GMT 35.041260 -89.975899 0 177 25 0
2021-07-10 18:52:46 GMT 35.041512 -89.975906 0 178 30 0
2021-07-10 18:52:45 GMT 35.041649 -89.975922 0 181 33 0
2021-07-10 18:52:44 GMT 35.041969 -89.975922 0 180 42 0
2021-07-10 18:52:42 GMT 35.042160 -89.975922 0 180 47 0
2021-07-10 18:52:41 GMT 35.042381 -89.975899 0 179 52 -352
2021-07-10 18:52:39 GMT 35.042850 -89.975891 0 177 66 -352
2021-07-10 18:52:38 GMT 35.043129 -89.975906 0 178 73 -352
2021-07-10 18:52:37 GMT 35.043442 -89.975899 0 177 80 -352
2021-07-10 18:52:35 GMT 35.044159 -89.975967 0 179 90 -352
2021-07-10 18:52:34 GMT 35.044601 -89.975990 0 179 92 -352
2021-07-10 18:52:33 GMT 35.044991 -89.975967 150 179 99 -352
2021-07-10 18:52:31 GMT 35.045910 -89.976044 150 180 107 -352
2021-07-10 18:52:30 GMT 35.046379 -89.976028 150 180 112 -128
2021-07-10 18:52:28 GMT 35.047379 -89.975960 175 177 122 192
2021-07-10 18:52:27 GMT 35.047901 -89.975983 175 177 128 192
2021-07-10 18:52:25 GMT 35.049049 -89.976013 175 177 132 -576
2021-07-10 18:52:24 GMT 35.049648 -89.976059 150 178 135 -576
2021-07-10 18:52:23 GMT 35.050892 -89.976120 175 178 138 -576
2021-07-10 18:52:21 GMT 35.051571 -89.976158 175 179 133 -576
2021-07-10 18:52:20 GMT 35.052151 -89.976181 200 179 138 -576
2021-07-10 18:52:19 GMT 35.052792 -89.976181 225 179 137 -576
2021-07-10 18:52:17 GMT 35.054081 -89.976173 250 178 136 -576
2021-07-10 18:52:16 GMT 35.054699 -89.976181 300 178 137 -576
2021-07-10 18:52:14 GMT 35.055969 -89.976250 300 179 135 -576
2021-07-10 18:52:13 GMT 35.056591 -89.976250 300 179 135 -576
2021-07-10 18:52:12 GMT 35.057869 -89.976311 350 180 131 -576
2021-07-10 18:52:10 GMT 35.058491 -89.976303 350 179 129 -576
2021-07-10 18:52:09 GMT 35.059090 -89.976273 350 178 128 -576
2021-07-10 18:52:08 GMT 35.060280 -89.976303 350 178 131 -576
2021-07-10 18:52:06 GMT 35.060879 -89.976288 350 178 130 -576
2021-07-10 18:52:05 GMT 35.061508 -89.976311 350 177 126 -576
2021-07-10 18:52:03 GMT 35.062660 -89.976410 400 180 136 -576
2021-07-10 18:52:02 GMT 35.063278 -89.976379 400 179 136 -576
2021-07-10 18:52:00 GMT 35.064579 -89.976357 400 177 131 -576
2021-07-10 18:51:59 GMT 35.065208 -89.976418 425 178 129 -576
2021-07-10 18:51:57 GMT 35.066368 -89.976418 600 177 137 -576
2021-07-10 18:51:56 GMT 35.067032 -89.976463 600 178 135 -576
2021-07-10 18:51:55 GMT 35.067661 -89.976509 600 180 132 -576
2021-07-10 18:51:53 GMT 35.068851 -89.976509 600 179 137 -576
2021-07-10 18:51:52 GMT 35.069462 -89.976517 600 179 140 -576
2021-07-10 18:51:50 GMT 35.070751 -89.976578 550 181 136 -576
2021-07-10 18:51:49 GMT 35.071369 -89.976501 550 178 136 -576
2021-07-10 18:51:48 GMT 35.071991 -89.976486 600 176 136 -576
2021-07-10 18:51:46 GMT 35.073292 -89.976601 600 178 133 -576
2021-07-10 18:51:45 GMT 35.073921 -89.976639 700 179 133 -576
2021-07-10 18:51:43 GMT 35.075119 -89.976639 700 179 138 -576
2021-07-10 18:51:41 GMT 35.076401 -89.976624 700 177 136 -576
2021-07-10 18:51:40 GMT 35.077000 -89.976646 700 178 139 -576
2021-07-10 18:51:39 GMT 35.077671 -89.976700 700 179 136 -576
2021-07-10 18:51:37 GMT 35.078960 -89.976707 700 179 135 -576
2021-07-10 18:51:36 GMT 35.079529 -89.976707 800 179 139 -576
2021-07-10 18:51:35 GMT 35.080189 -89.976730 800 179 138 -576
2021-07-10 18:51:33 GMT 35.081490 -89.976768 800 180 138 -576
2021-07-10 18:51:32 GMT 35.082150 -89.976723 800 178 136 -576
2021-07-10 18:51:30 GMT 35.083359 -89.976723 900 177 141 -480
2021-07-10 18:51:29 GMT 35.084068 -89.976761 900 178 134 -480
2021-07-10 18:51:28 GMT 35.085289 -89.976799 900 177 134 -480
2021-07-10 18:51:26 GMT 35.085892 -89.976868 900 179 136 -480
2021-07-10 18:51:25 GMT 35.086552 -89.976921 900 180 134 -480
2021-07-10 18:51:24 GMT 35.087158 -89.976891 900 179 135 -480
2021-07-10 18:51:22 GMT 35.088409 -89.976898 1,000 179 134 -480
2021-07-10 18:51:21 GMT 35.089050 -89.976913 1,000 179 132 -480
2021-07-10 18:51:20 GMT 35.090240 -89.976898 1,000 179 138 -480
2021-07-10 18:51:18 GMT 35.090881 -89.976913 1,000 178 135 -480
2021-07-10 18:51:17 GMT 35.091530 -89.976921 1,000 178 133 -480
2021-07-10 18:51:16 GMT 35.092800 -89.976898 1,000 176 131 -480
2021-07-10 18:51:14 GMT 35.093410 -89.976967 1,000 177 131 -480
2021-07-10 18:51:13 GMT 35.093922 -89.977028 1,000 179 139 -480
2021-07-10 18:51:11 GMT 35.095261 -89.977043 1,000 177 132 -480
2021-07-10 18:51:10 GMT 35.095879 -89.977089 1,000 178 131 -480
2021-07-10 18:51:09 GMT 35.096470 -89.977142 1,000 180 133 -480
2021-07-10 18:51:07 GMT 35.097721 -89.977150 1,100 181 133 -480
2021-07-10 18:51:06 GMT 35.098942 -89.977058 1,100 178 135 -480
2021-07-10 18:51:04 GMT 35.099548 -89.977089 1,100 178 135 -480
2021-07-10 18:51:03 GMT 35.100140 -89.977119 1,100 179 138 -480
2021-07-10 18:51:02 GMT 35.101410 -89.977112 1,100 178 140 -480
2021-07-10 18:51:00 GMT 35.102131 -89.977127 1,100 178 133 -480
2021-07-10 18:50:59 GMT 35.102680 -89.977150 1,150 178 138 -480
2021-07-10 18:50:58 GMT 35.103958 -89.977219 1,150 178 139 -480
2021-07-10 18:50:56 GMT 35.104671 -89.977249 1,200 179 133 -480
2021-07-10 18:50:55 GMT 35.105282 -89.977249 1,200 178 133 -480
2021-07-10 18:50:54 GMT 35.106510 -89.977272 1,300 178 138 -480
2021-07-10 18:50:52 GMT 35.107231 -89.977318 1,300 179 132 -480
2021-07-10 18:50:51 GMT 35.107841 -89.977364 1,300 180 132 -480
2021-07-10 18:50:50 GMT 35.109032 -89.977341 1,300 179 135 -480
2021-07-10 18:50:48 GMT 35.109638 -89.977333 1,300 179 137 -480
2021-07-10 18:50:47 GMT 35.110920 -89.977333 1,300 179 135 -480
2021-07-10 18:50:45 GMT 35.111519 -89.977341 1,400 179 136 -480
2021-07-10 18:50:44 GMT 35.112179 -89.977341 1,400 178 134 -480
2021-07-10 18:50:43 GMT 35.112782 -89.977364 1,400 178 135 -480
2021-07-10 18:50:41 GMT 35.114052 -89.977386 1,400 178 133 -480
2021-07-10 18:50:40 GMT 35.115280 -89.977432 1,400 179 135 -480
2021-07-10 18:50:38 GMT 35.115910 -89.977440 1,400 178 133 -480
2021-07-10 18:50:36 GMT 35.117119 -89.977478 1,500 179 133 -480
2021-07-10 18:50:34 GMT 35.118359 -89.977501 1,500 179 134 -480
2021-07-10 18:50:33 GMT 35.118992 -89.977493 1,500 178 134 -480
2021-07-10 18:50:32 GMT 35.119671 -89.977509 1,500 179 130 -480
2021-07-10 18:50:30 GMT 35.120880 -89.977570 1,600 179 133 -480
2021-07-10 18:50:28 GMT 35.122089 -89.977562 1,600 179 134 -832
2021-07-10 18:50:27 GMT 35.122688 -89.977562 1,600 179 136 -832
2021-07-10 18:50:25 GMT 35.123909 -89.977547 1,600 179 139 -832
2021-07-10 18:50:24 GMT 35.124550 -89.977562 1,600 178 139 -832
2021-07-10 18:50:23 GMT 35.125252 -89.977570 1,600 178 134 -832
2021-07-10 18:50:22 GMT 35.126511 -89.977608 1,600 179 135 -832
2021-07-10 18:50:20 GMT 35.127140 -89.977623 1,600 179 135 -832
2021-07-10 18:50:19 GMT 35.128422 -89.977661 1,600 179 136 -832
2021-07-10 18:50:18 GMT 35.128979 -89.977661 1,700 179 143 -832
2021-07-10 18:50:16 GMT 35.129631 -89.977661 1,700 178 143 -832
2021-07-10 18:50:14 GMT 35.130951 -89.977669 1,700 178 145 -832
2021-07-10 18:50:13 GMT 35.131599 -89.977722 1,700 179 146 -832
2021-07-10 18:50:12 GMT 35.132240 -89.977722 1,700 178 148 -832
2021-07-10 18:50:10 GMT 35.133621 -89.977753 1,700 178 148 -832
2021-07-10 18:50:09 GMT 35.134331 -89.977783 1,700 179 146 -832
2021-07-10 18:50:07 GMT 35.135651 -89.977798 1,900 179 150 -832
2021-07-10 18:50:06 GMT 35.136391 -89.977814 1,900 179 146 -832
2021-07-10 18:50:05 GMT 35.137749 -89.977837 1,900 179 145 -832
2021-07-10 18:50:03 GMT 35.138432 -89.977829 1,900 179 146 -832
2021-07-10 18:50:02 GMT 35.139091 -89.977829 1,900 178 148 -832
2021-07-10 18:50:00 GMT 35.140549 -89.977852 1,900 178 144 -832
2021-07-10 18:49:59 GMT 35.141159 -89.977890 1,900 178 150 -832
2021-07-10 18:49:58 GMT 35.141869 -89.977890 1,900 178 151 -832
2021-07-10 18:49:56 GMT 35.143242 -89.977928 1,900 178 160 -832
2021-07-10 18:49:55 GMT 35.143879 -89.977928 1,900 178 168 -832
2021-07-10 18:49:54 GMT 35.144402 -89.977982 2,000 179 190 -832
2021-07-10 18:49:52 GMT 35.146130 -89.978043 2,000 180 183 -832
2021-07-10 18:49:47 GMT 35.150246 -89.978142 1,975 178 162 -704
2021-07-10 18:49:37 GMT 35.156845 -89.978363 2,100 179 157 -384
2021-07-10 18:49:27 GMT 35.164536 -89.978477 2,225 179 158 -1152
2021-07-10 18:49:19 GMT 35.170868 -89.978539 2,375 179 161 -960
2021-07-10 18:49:16 GMT 35.172455 -89.978584 2,450 179 164 -704
2021-07-10 18:49:06 GMT 35.180466 -89.978699 2,525 178 172 -704
2021-07-10 18:48:55 GMT 35.188705 -89.978928 2,800 178 178 -960
2021-07-10 18:48:50 GMT 35.193398 -89.979057 2,775 178 178 -960
2021-07-10 18:48:45 GMT 35.197357 -89.979149 2,825 179 178 -1024
2021-07-10 18:48:38 GMT 35.202709 -89.979233 2,925 179 178 64
2021-07-10 18:48:35 GMT 35.206108 -89.979286 2,925 179 179 0
2021-07-10 18:48:22 GMT 35.216171 -89.979485 2,925 177 182 -64
2021-07-10 18:48:14 GMT 35.224171 -89.979919 2,925 177 182 128
2021-07-10 18:48:02 GMT 35.232826 -89.980247 2,925 178 181 -64
2021-07-10 18:47:53 GMT 35.241394 -89.980659 2,925 176 177 0
2021-07-10 18:47:45 GMT 35.247437 -89.981293 2,925 171 180 -64
2021-07-10 18:47:42 GMT 35.250099 -89.981766 2,925 169 180 -64
2021-07-10 18:47:31 GMT 35.258972 -89.984779 2,925 158 183 0
2021-07-10 18:47:21 GMT 35.266800 -89.989410 2,925 150 188 -64
2021-07-10 18:47:11 GMT 35.274120 -89.994858 2,925 137 204 192
2021-07-10 18:47:00 GMT 35.282272 -90.003143 2,900 129 211 0
2021-07-10 18:46:53 GMT 35.286877 -90.010170 2,925 115 222 -64
2021-07-10 18:46:50 GMT 35.288269 -90.013680 2,925 108 227 -128
2021-07-10 18:46:40 GMT 35.290737 -90.026062 2,975 97 237 -448
2021-07-10 18:46:27 GMT 35.292416 -90.042542 3,100 97 240 -896
2021-07-10 18:46:16 GMT 35.293766 -90.056046 3,225 96 243 -704
2021-07-10 18:46:07 GMT 35.295071 -90.068901 3,400 96 244 -896
2021-07-10 18:45:55 GMT 35.296646 -90.085144 3,500 96 251 -448
2021-07-10 18:45:47 GMT 35.297836 -90.098534 3,650 94 256 -832
2021-07-10 18:45:36 GMT 35.298065 -90.113983 3,775 85 265 -768
2021-07-10 18:45:26 GMT 35.296093 -90.129967 3,925 78 276 -832
2021-07-10 18:45:17 GMT 35.293720 -90.144402 4,050 78 279 -832
2021-07-10 18:45:13 GMT 35.293076 -90.148430 4,100 79 283 -896
2021-07-10 18:45:04 GMT 35.290878 -90.162453 4,250 79 290 -1408
2021-07-10 18:44:56 GMT 35.288784 -90.175545 4,500 79 292 -1856
2021-07-10 18:44:53 GMT 35.288086 -90.180283 4,575 79 294 -1664
2021-07-10 18:44:48 GMT 35.286713 -90.188942 4,700 79 296 -1408
2021-07-10 18:44:43 GMT 35.285431 -90.197639 4,800 79 302 -960
2021-07-10 18:44:39 GMT 35.284313 -90.205231 4,850 79 309 -448
2021-07-10 18:44:33 GMT 35.282776 -90.215775 4,900 79 316 -512
2021-07-10 18:44:22 GMT 35.279938 -90.234802 4,925 79 329 0
2021-07-10 18:44:17 GMT 35.278774 -90.242340 4,925 79 334 0
2021-07-10 18:44:12 GMT 35.276913 -90.255081 4,900 79 341 128
2021-07-10 18:44:06 GMT 35.275177 -90.266586 4,900 79 347 64
2021-07-10 18:44:01 GMT 35.274078 -90.273804 4,900 79 353 0
2021-07-10 18:43:56 GMT 35.272678 -90.283310 4,925 79 356 -128
2021-07-10 18:43:49 GMT 35.270256 -90.299141 4,925 79 356 0
2021-07-10 18:43:46 GMT 35.269638 -90.303101 4,925 79 357 0
2021-07-10 18:43:41 GMT 35.267807 -90.315285 4,925 79 358 -64
2021-07-10 18:43:37 GMT 35.266533 -90.323807 4,925 79 357 0
2021-07-10 18:43:30 GMT 35.264671 -90.336372 4,925 79 357 64
2021-07-10 18:43:20 GMT 35.261627 -90.356598 4,925 79 356 64
2021-07-10 18:43:17 GMT 35.261040 -90.360565 4,925 79 356 0
2021-07-10 18:43:08 GMT 35.258152 -90.380020 4,900 79 356 64
2021-07-10 18:42:58 GMT 35.255314 -90.399246 4,900 79 355 0
2021-07-10 18:42:43 GMT 35.250595 -90.430984 4,925 79 354 64
2021-07-10 18:42:36 GMT 35.249084 -90.441231 4,925 79 351 -64
2021-07-10 18:42:26 GMT 35.245651 -90.463310 4,950 79 351 -192
2021-07-10 18:42:06 GMT 35.239426 -90.502792 4,925 78 373 64
2021-07-10 18:41:52 GMT 35.235016 -90.530441 4,925 79 386 0
2021-07-10 18:41:38 GMT 35.230034 -90.562172 4,925 79 386 64
2021-07-10 18:41:33 GMT 35.228714 -90.570335 4,925 79 386 -64
2021-07-10 18:41:17 GMT 35.223240 -90.606712 4,900 79 385 0
2021-07-10 18:41:09 GMT 35.221848 -90.621964 4,925 91 373 64
2021-07-10 18:40:53 GMT 35.233334 -90.650002 5,000 89 354
2021-07-10 18:40:35 GMT 35.233334 -90.683334 5,000 106 356
2021-07-10 18:36:37 GMT 35.330933 -91.141319 9,925 68 316 64
2021-07-10 18:36:05 GMT 35.313736 -91.195641 9,925 69 318 0
2021-07-10 18:35:57 GMT 35.309452 -91.209198 9,925 68 317 0
2021-07-10 18:33:55 GMT 35.239166 -91.417503 10,000 63 316
2021-07-10 18:33:00 GMT 35.205833 -91.500000 10,000 47 312
We lost coverage of the aircraft here for a total of 6 minutes
2021-07-10 18:27:21 GMT 34.850353 -91.977592 16,675 41 377 -2752
2021-07-10 18:26:58 GMT 34.820423 -92.006378 17,675 38 389 -3008
2021-07-10 18:26:50 GMT 34.807201 -92.019081 18,150 39 398 -3136
2021-07-10 18:26:39 GMT 34.793373 -92.032867 18,650 40 400 -3008
2021-07-10 18:26:29 GMT 34.779362 -92.047523 19,150 41 408 -3072
2021-07-10 18:26:19 GMT 34.765072 -92.063087 19,675 42 414 -3200
2021-07-10 18:26:08 GMT 34.750214 -92.080170 20,250 45 421 -3392
2021-07-10 18:25:59 GMT 34.735325 -92.098907 20,850 47 429 -3456
2021-07-10 18:25:48 GMT 34.720753 -92.118584 21,525 50 441 -3840
2021-07-10 18:25:37 GMT 34.707813 -92.137299 22,150 51 442 -3904
2021-07-10 18:25:28 GMT 34.695896 -92.156120 22,775 54 449 -3712
2021-07-10 18:25:16 GMT 34.682629 -92.179184 23,525 56 453 -4480
2021-07-10 18:25:06 GMT 34.671478 -92.200180 24,300 58 456 -4928
2021-07-10 18:24:57 GMT 34.660217 -92.223274 25,200 60 455 -5120
2021-07-10 18:24:45 GMT 34.649387 -92.246880 26,075 60 454 -4608
2021-07-10 18:24:35 GMT 34.639008 -92.269363 26,850 60 455 -4544
2021-07-10 18:24:25 GMT 34.628174 -92.293060 27,675 61 456 -4736
2021-07-10 18:24:15 GMT 34.618340 -92.314857 28,400 61 458 -4288
2021-07-10 18:24:05 GMT 34.607620 -92.338852 29,150 61 461 -4032
2021-07-10 18:23:53 GMT 34.595715 -92.365036 29,900 61 467 -3776
2021-07-10 18:23:43 GMT 34.585648 -92.386948 30,425 61 475 -3456
2021-07-10 18:23:34 GMT 34.575001 -92.410240 31,125 60 473 -4672
2021-07-10 18:23:22 GMT 34.562847 -92.436447 31,875 60 470 -3520
2021-07-10 18:23:12 GMT 34.552746 -92.457962 32,725 60 469 -3200
2021-07-10 18:23:06 GMT 34.546322 -92.471695 32,725 60 469 -3200
2021-07-10 18:23:03 GMT 34.541290 -92.482407 33,025 60 466 -4032
2021-07-10 18:23:00 GMT 34.539642 -92.486107 33,150 61 466 -4096
2021-07-10 18:22:50 GMT 34.528542 -92.510658 33,900 61 460 -4224
2021-07-10 18:22:41 GMT 34.520233 -92.529381 34,450 61 456 -3520
2021-07-10 18:22:32 GMT 34.510014 -92.551865 35,050 60 450 -3712
2021-07-10 18:22:18 GMT 34.496979 -92.579880 35,675 60 447 -2624
2021-07-10 18:22:07 GMT 34.486176 -92.602959 36,150 60 446 -2880
2021-07-10 18:22:04 GMT 34.482639 -92.610512 36,325 60 445 -2688
2021-07-10 18:21:59 GMT 34.467865 -92.642380 36,700 60 444 -2304
2021-07-10 18:21:49 GMT 34.467865 -92.642380 36,825 60 444 -640
2021-07-10 18:21:43 GMT 34.461319 -92.656517 36,850 60 446 -448
2021-07-10 18:21:39 GMT 34.456696 -92.666595 36,900 60 448 -640
2021-07-10 18:21:35 GMT 34.453266 -92.674026 36,925 60 449 -384
2021-07-10 18:21:25 GMT 34.443443 -92.695312 37,000 60 450 -128
2021-07-10 18:21:18 GMT 34.436367 -92.710709 37,000 60 450 0
2021-07-10 18:21:08 GMT 34.426620 -92.731895 37,000 60 451 -64
2021-07-10 18:20:59 GMT 34.404896 -92.779137 37,025 61 452 -64
2021-07-10 18:20:47 GMT 34.404896 -92.779137 37,025 60 453 0
2021-07-10 18:20:37 GMT 34.394302 -92.802132 37,025 61 453 64
2021-07-10 18:20:27 GMT 34.373337 -92.847816 37,025 61 453 64
2021-07-10 18:20:16 GMT 34.373337 -92.847816 37,025 60 454 64
2021-07-10 18:20:11 GMT 34.366653 -92.862221 37,000 60 455 64
2021-07-10 18:20:06 GMT 34.361977 -92.872414 37,000 60 455 64
2021-07-10 18:19:56 GMT 34.352325 -92.893272 37,000 60 455 0
2021-07-10 18:19:48 GMT 34.344658 -92.909943 37,000 60 455 64
2021-07-10 18:19:36 GMT 34.330879 -92.939758 37,000 60 455 0
2021-07-10 18:19:25 GMT 34.320419 -92.962440 37,000 60 455 0
2021-07-10 18:19:15 GMT 34.309937 -92.985085 37,000 60 456 64
2021-07-10 18:19:06 GMT 34.300369 -93.005768 37,000 60 455 0
2021-07-10 18:19:03 GMT 34.298851 -93.009109 37,000 60 455 64
2021-07-10 18:18:51 GMT 34.286049 -93.036636 37,000 60 456 0
2021-07-10 18:18:20 GMT 34.253181 -93.107590 37,000 60 455 0
2021-07-10 18:17:43 GMT 34.215042 -93.189735 37,000 60 455 0
2021-07-10 18:17:38 GMT 34.210217 -93.200172 36,975 60 455 0
2021-07-10 18:17:33 GMT 34.204468 -93.212547 37,000 60 455 0
2021-07-10 18:17:30 GMT 34.202209 -93.217445 37,000 60 455 0
2021-07-10 18:17:20 GMT 34.191875 -93.239822 37,000 60 455 0
2021-07-10 18:17:17 GMT 34.180481 -93.264114 37,000 60 455 -64
2021-07-10 18:16:57 GMT 34.167854 -93.291092 37,000 60 455 -64
2021-07-10 18:16:49 GMT 34.160934 -93.305878 37,000 60 455 0
2021-07-10 18:16:46 GMT 34.155991 -93.316528 37,000 60 455 0
2021-07-10 18:16:38 GMT 34.148674 -93.332176 37,000 60 456 -64
2021-07-10 18:16:35 GMT 34.145462 -93.339043 37,000 60 456 -64
2021-07-10 18:16:29 GMT 34.138432 -93.354095 37,025 60 456 0
2021-07-10 18:16:26 GMT 34.135963 -93.359413 37,025 60 456 0
2021-07-10 18:16:08 GMT 34.117447 -93.399033 37,000 60 456 64
2021-07-10 18:16:06 GMT 34.114643 -93.404961 37,000 60 456 64
2021-07-10 18:15:50 GMT 34.098953 -93.438438 37,000 60 457 -64
2021-07-10 18:15:42 GMT 34.091446 -93.454414 37,000 60 457 0
2021-07-10 18:15:35 GMT 34.083344 -93.471680 37,000 60 457 0
2021-07-10 18:15:32 GMT 34.079315 -93.480309 37,000 60 457 0
2021-07-10 18:15:23 GMT 34.071808 -93.496284 37,000 60 458 0
2021-07-10 18:15:03 GMT 34.049515 -93.543823 37,025 60 458 -64
2021-07-10 18:14:57 GMT 34.044617 -93.554245 37,025 60 459 0
2021-07-10 18:14:52 GMT 34.037521 -93.569321 37,025 60 458 0
2021-07-10 18:14:41 GMT 34.027592 -93.590408 37,025 60 458 64
2021-07-10 18:14:31 GMT 34.016373 -93.614159 37,025 60 459 0
2021-07-10 18:14:20 GMT 34.005112 -93.637878 37,025 60 459 -64
2021-07-10 18:14:09 GMT 33.992771 -93.664055 37,025 60 459 64
2021-07-10 18:14:07 GMT 33.991837 -93.666069 37,025 60 458 0
2021-07-10 18:13:55 GMT 33.979385 -93.692474 37,025 60 458 0
2021-07-10 18:13:47 GMT 33.970844 -93.710464 37,025 60 459 0
2021-07-10 18:13:42 GMT 33.964233 -93.724419 37,025 60 459 0
2021-07-10 18:13:29 GMT 33.951618 -93.751030 37,025 60 459 0
2021-07-10 18:13:17 GMT 33.938816 -93.778091 37,000 60 459 0
2021-07-10 18:13:14 GMT 33.935257 -93.785629 37,000 60 459 0
2021-07-10 18:12:57 GMT 33.918053 -93.821693 37,025 60 459 0
2021-07-10 18:12:49 GMT 33.908508 -93.841843 37,000 60 458 0
2021-07-10 18:12:31 GMT 33.890121 -93.880470 37,000 60 457 64
2021-07-10 18:12:25 GMT 33.883930 -93.893456 37,000 60 456 0
2021-07-10 18:12:18 GMT 33.877441 -93.907150 37,000 60 456 0
2021-07-10 18:12:09 GMT 33.867966 -93.927223 37,000 60 456 0
2021-07-10 18:12:04 GMT 33.861492 -93.940887 37,000 60 456 0
2021-07-10 18:11:53 GMT 33.850891 -93.963264 37,000 60 455 64
2021-07-10 18:11:49 GMT 33.847527 -93.970299 37,000 60 454 0
2021-07-10 18:11:40 GMT 33.837006 -93.992439 37,000 60 454 0
2021-07-10 18:11:33 GMT 33.830212 -94.006638 37,000 60 453 0
2021-07-10 18:11:29 GMT 33.826263 -94.014938 37,000 60 453 -64
2021-07-10 18:11:20 GMT 33.817429 -94.033493 37,000 60 452 -64
2021-07-10 18:11:10 GMT 33.805984 -94.057487 37,000 60 452 64
2021-07-10 18:11:01 GMT 33.797470 -94.075310 37,000 60 451 64
2021-07-10 18:10:57 GMT 33.792709 -94.085342 37,000 60 451 0
2021-07-10 18:10:48 GMT 33.782730 -94.106194 37,000 60 451 0
2021-07-10 18:10:36 GMT 33.770828 -94.131142 37,000 60 450 64
2021-07-10 18:10:31 GMT 33.766201 -94.140930 37,000 60 450 64
2021-07-10 18:10:26 GMT 33.760803 -94.152214 37,000 60 450 0
2021-07-10 18:10:19 GMT 33.752472 -94.169762 37,000 60 450 -64
2021-07-10 18:10:08 GMT 33.742599 -94.190254 37,000 60 448 0
2021-07-10 18:10:04 GMT 33.738548 -94.198669 37,025 60 448 0
2021-07-10 18:09:58 GMT 33.732357 -94.211594 37,000 60 448 0
2021-07-10 18:09:52 GMT 33.725922 -94.225533 37,000 62 448 0
2021-07-10 18:09:41 GMT 33.714527 -94.252335 37,000 64 449 -64
2021-07-10 18:09:23 GMT 33.700188 -94.291306 37,000 67 450 64
2021-07-10 18:09:13 GMT 33.693008 -94.312920 36,975 68 451 128
2021-07-10 18:09:07 GMT 33.687668 -94.329018 36,950 68 453 384
2021-07-10 18:08:59 GMT 33.680870 -94.349503 36,900 68 451 576
2021-07-10 18:08:49 GMT 33.673794 -94.370667 36,825 68 451 576
2021-07-10 18:08:40 GMT 33.666824 -94.391617 36,775 68 451 704
2021-07-10 18:08:34 GMT 33.662296 -94.405060 36,675 68 451 704
2021-07-10 18:08:28 GMT 33.657921 -94.418282 36,600 68 451 704
2021-07-10 18:08:23 GMT 33.654282 -94.429169 36,550 68 451 704
2021-07-10 18:08:13 GMT 33.646420 -94.452553 36,450 68 450 448
2021-07-10 18:08:08 GMT 33.642014 -94.465721 36,425 68 448 448
2021-07-10 18:08:04 GMT 33.638214 -94.477043 36,375 68 447 512
2021-07-10 18:08:01 GMT 33.636154 -94.483261 36,350 68 447 576
2021-07-10 18:07:47 GMT 33.625397 -94.515495 36,150 68 449 1216
2021-07-10 18:07:39 GMT 33.619934 -94.531860 36,000 68 449 1152
2021-07-10 18:07:35 GMT 33.617233 -94.539925 35,950 68 450 832
2021-07-10 18:07:30 GMT 33.612350 -94.554504 35,850 68 449 768
2021-07-10 18:07:21 GMT 33.605129 -94.576263 35,725 68 449 704
2021-07-10 18:07:14 GMT 33.600128 -94.591217 35,650 68 449 896
2021-07-10 18:07:03 GMT 33.592529 -94.613869 35,450 68 450 1664
2021-07-10 18:06:57 GMT 33.587673 -94.628387 35,275 68 451 1856
2021-07-10 18:06:53 GMT 33.583649 -94.640488 35,100 68 453 1920
2021-07-10 18:06:43 GMT 33.576004 -94.663139 34,825 68 455 1344
2021-07-10 18:06:35 GMT 33.569138 -94.683479 34,625 68 457 1472
2021-07-10 18:06:32 GMT 33.567654 -94.687958 34,575 68 458 1664
2021-07-10 18:06:24 GMT 33.561928 -94.704948 34,375 68 460 1856
2021-07-10 18:06:17 GMT 33.554993 -94.725525 34,125 67 463 1408
2021-07-10 18:06:10 GMT 33.550056 -94.740028 34,000 68 464 896
2021-07-10 18:06:03 GMT 33.545124 -94.754562 33,900 68 464 832
2021-07-10 18:06:00 GMT 33.541492 -94.765266 33,850 68 464 960
2021-07-10 18:05:55 GMT 33.538467 -94.774330 33,775 68 464 1088
2021-07-10 18:05:50 GMT 33.533066 -94.790321 33,650 68 464 1152
2021-07-10 18:05:45 GMT 33.528992 -94.802452 33,550 68 464 1280
2021-07-10 18:05:39 GMT 33.525757 -94.812012 33,450 67 467 1536
2021-07-10 18:05:34 GMT 33.521801 -94.823730 33,325 67 467 1536
2021-07-10 18:05:30 GMT 33.517330 -94.836899 33,200 68 467 1536
2021-07-10 18:05:25 GMT 33.513428 -94.848434 33,075 68 470 1344
2021-07-10 18:05:17 GMT 33.507790 -94.865036 32,925 68 470 960
2021-07-10 18:05:14 GMT 33.504730 -94.874191 32,875 68 470 896
2021-07-10 18:05:09 GMT 33.500526 -94.886505 32,800 67 469 960
2021-07-10 18:05:06 GMT 33.497452 -94.895615 32,750 67 469 960
2021-07-10 18:05:03 GMT 33.496307 -94.899025 32,725 67 469 832
2021-07-10 18:05:00 GMT 33.492519 -94.910049 32,650 67 469 832
2021-07-10 18:04:53 GMT 33.486923 -94.926651 32,550 67 468 1024
2021-07-10 18:04:49 GMT 33.484138 -94.934822 32,500 67 468 960
2021-07-10 18:04:42 GMT 33.479004 -94.949890 32,425 67 468 832
2021-07-10 18:04:36 GMT 33.473557 -94.965988 32,325 67 467 704
2021-07-10 18:04:33 GMT 33.471039 -94.973404 32,275 67 467 704
2021-07-10 18:04:27 GMT 33.465893 -94.988411 32,200 67 466 832
2021-07-10 18:04:23 GMT 33.463612 -94.995079 32,125 67 465 896
2021-07-10 18:04:20 GMT 33.461098 -95.002480 32,125 67 465 896
2021-07-10 18:04:17 GMT 33.458679 -95.009598 32,075 67 465 960
2021-07-10 18:04:14 GMT 33.455383 -95.019379 32,000 68 464 1152
2021-07-10 18:04:11 GMT 33.453648 -95.024338 31,950 68 464 1152
2021-07-10 18:04:07 GMT 33.450855 -95.032692 31,900 68 464 1216
2021-07-10 18:04:02 GMT 33.445450 -95.048599 31,750 67 465 1088
2021-07-10 18:03:57 GMT 33.442795 -95.056458 31,700 67 465 896
2021-07-10 18:03:48 GMT 33.434608 -95.080505 31,550 67 464 896
2021-07-10 18:03:41 GMT 33.428833 -95.097328 31,425 67 463 1088
2021-07-10 18:03:36 GMT 33.425354 -95.107544 31,275 67 463 1152
2021-07-10 18:03:32 GMT 33.421692 -95.118202 31,175 67 463 1344
2021-07-10 18:03:29 GMT 33.419998 -95.123199 31,200 67 463 1408
2021-07-10 18:03:20 GMT 33.412125 -95.146194 30,950 67 466 1472
2021-07-10 18:03:15 GMT 33.408493 -95.156906 30,825 67 466 1408
2021-07-10 18:03:10 GMT 33.403233 -95.172203 30,675 67 466 1408
2021-07-10 18:03:05 GMT 33.400394 -95.180557 30,525 67 465 960
2021-07-10 18:03:02 GMT 33.397110 -95.190109 30,550 67 467 960
2021-07-10 18:02:58 GMT 33.394913 -95.196533 30,500 67 466 896
2021-07-10 18:02:53 GMT 33.390106 -95.210602 30,425 67 466 896
2021-07-10 18:02:49 GMT 33.386536 -95.221085 30,350 67 465 960
2021-07-10 18:02:44 GMT 33.382469 -95.233025 30,250 67 465 1024
2021-07-10 18:02:40 GMT 33.377197 -95.248444 30,125 67 464 1088
2021-07-10 18:02:37 GMT 33.377197 -95.248444 30,150 67 464 1088
2021-07-10 18:02:34 GMT 33.369507 -95.270966 29,975 67 463 1088
2021-07-10 18:02:27 GMT 33.369507 -95.270966 29,975 67 463 1088
2021-07-10 18:02:24 GMT 33.366669 -95.279259 29,200 67 462 1024
2021-07-10 18:02:17 GMT 33.361221 -95.295082 29,800 67 462 1024
2021-07-10 18:02:14 GMT 33.358311 -95.303535 29,725 67 461 1024
2021-07-10 18:02:08 GMT 33.352570 -95.320297 29,575 67 460 1024
2021-07-10 18:02:02 GMT 33.349140 -95.330162 29,550 67 459 960
2021-07-10 18:01:57 GMT 33.344296 -95.344231 29,375 67 458 960
2021-07-10 18:01:52 GMT 33.341034 -95.353584 29,200 67 457 896
2021-07-10 18:01:45 GMT 33.334660 -95.372032 29,250 67 457 896
2021-07-10 18:01:42 GMT 33.332424 -95.378532 29,225 67 456 896
2021-07-10 18:01:37 GMT 33.328491 -95.389946 29,150 67 455 896
2021-07-10 18:01:34 GMT 33.326141 -95.396698 29,100 67 455 960
2021-07-10 18:01:31 GMT 33.324371 -95.401810 29,050 67 454 960
2021-07-10 18:01:24 GMT 33.318230 -95.419624 28,925 67 453 1088
2021-07-10 18:01:21 GMT 33.315434 -95.427696 28,875 67 452 1088
2021-07-10 18:01:17 GMT 33.312641 -95.435822 28,700 67 452 1152
2021-07-10 18:01:14 GMT 33.309662 -95.444344 28,725 67 452 1152
2021-07-10 18:01:10 GMT 33.307522 -95.450562 28,675 67 452 1216
2021-07-10 18:01:07 GMT 33.304047 -95.460701 28,575 67 452 1344
2021-07-10 18:01:04 GMT 33.301655 -95.467606 28,500 67 452 1472
2021-07-10 18:01:01 GMT 33.299328 -95.474327 28,425 67 452 1536
2021-07-10 18:00:53 GMT 33.292809 -95.493217 28,200 67 452 1792
2021-07-10 18:00:48 GMT 33.289551 -95.502693 28,100 67 452 1408
2021-07-10 18:00:44 GMT 33.285461 -95.514481 27,975 67 452 1344
2021-07-10 18:00:41 GMT 33.284290 -95.517937 27,950 67 452 1216
2021-07-10 18:00:37 GMT 33.280846 -95.527916 27,875 67 452 1152
2021-07-10 18:00:33 GMT 33.277039 -95.538979 27,750 67 451 1088
2021-07-10 18:00:30 GMT 33.274567 -95.546120 27,725 67 451 1088
2021-07-10 18:00:22 GMT 33.266510 -95.569244 27,575 67 449 1024
2021-07-10 18:00:19 GMT 33.266510 -95.569244 27,550 67 448 1024
2021-07-10 18:00:13 GMT 33.260876 -95.585480 27,425 67 447 1088
2021-07-10 18:00:09 GMT 33.258041 -95.593689 27,350 67 447 1152
2021-07-10 18:00:01 GMT 33.251518 -95.612610 27,175 67 445 1216
2021-07-10 17:59:58 GMT 33.249844 -95.617378 27,150 67 445 1216
2021-07-10 17:59:51 GMT 33.243622 -95.635269 27,000 67 443 1024
2021-07-10 17:59:48 GMT 33.241653 -95.640930 26,975 67 443 960
2021-07-10 17:59:43 GMT 33.238205 -95.650841 26,850 67 441 896
2021-07-10 17:59:40 GMT 33.234993 -95.660088 26,825 67 440 960
2021-07-10 17:59:37 GMT 33.233364 -95.664795 26,800 67 440 1024
2021-07-10 17:59:30 GMT 33.228008 -95.680267 26,625 67 439 1280
2021-07-10 17:59:26 GMT 33.225449 -95.687668 26,600 67 438 1344
2021-07-10 17:59:21 GMT 33.220608 -95.701454 26,425 67 438 1856
2021-07-10 17:59:17 GMT 33.217026 -95.711739 26,275 67 439 2048
2021-07-10 17:59:10 GMT 33.212276 -95.725388 26,075 67 440 2112
2021-07-10 17:59:06 GMT 33.208878 -95.735306 25,925 67 441 2048
2021-07-10 17:58:59 GMT 33.202744 -95.752823 25,650 67 442 2048
2021-07-10 17:58:54 GMT 33.200546 -95.759140 25,350 67 445 1792
2021-07-10 17:58:48 GMT 33.195610 -95.773369 25,350 67 443 1984
2021-07-10 17:58:44 GMT 33.192024 -95.783569 25,200 67 445 1728
2021-07-10 17:58:38 GMT 33.187225 -95.797318 25,050 67 444 1600
2021-07-10 17:58:34 GMT 33.184391 -95.805489 24,950 67 443 1472
2021-07-10 17:58:29 GMT 33.179733 -95.818771 24,800 67 441 1344
2021-07-10 17:58:25 GMT 33.176422 -95.828247 24,725 67 442 1280
2021-07-10 17:58:17 GMT 33.171066 -95.843521 24,575 67 441 1344
2021-07-10 17:58:14 GMT 33.168320 -95.851372 24,500 67 440 1344
2021-07-10 17:58:08 GMT 33.163376 -95.865433 24,300 67 438 1408
2021-07-10 17:58:04 GMT 33.160091 -95.874825 24,250 67 438 1472
2021-07-10 17:57:57 GMT 33.155136 -95.888893 23,700 67 437 1536
2021-07-10 17:57:54 GMT 33.152176 -95.897301 23,975 67 437 1536
2021-07-10 17:57:50 GMT 33.149368 -95.905319 23,900 67 436 1536
2021-07-10 17:57:46 GMT 33.146961 -95.912216 23,825 67 436 1536
2021-07-10 17:57:42 GMT 33.143921 -95.920860 23,725 67 436 1472
2021-07-10 17:57:37 GMT 33.138748 -95.935692 23,475 67 434 1344
2021-07-10 17:57:32 GMT 33.135231 -95.945679 23,475 67 434 1280
2021-07-10 17:57:29 GMT 33.133835 -95.949600 23,450 67 433 1216
2021-07-10 17:57:25 GMT 33.130737 -95.958435 22,700 67 432 1152
2021-07-10 17:57:22 GMT 33.127899 -95.966568 23,250 67 431 1152
2021-07-10 17:57:19 GMT 33.125874 -95.972244 23,250 67 430 1152
2021-07-10 17:57:16 GMT 33.122707 -95.981216 23,175 67 429 1216
2021-07-10 17:57:11 GMT 33.118984 -95.991867 23,025 67 427 1216
2021-07-10 17:57:05 GMT 33.115074 -96.002960 22,950 67 427 1216
2021-07-10 17:57:00 GMT 33.107067 -96.025719 22,850 67 424 1216
2021-07-10 17:56:54 GMT 33.107067 -96.025719 22,750 67 424 1280
2021-07-10 17:56:51 GMT 33.101990 -96.040115 22,625 67 423 1280
2021-07-10 17:56:48 GMT 33.101990 -96.040115 22,600 67 423 1280
2021-07-10 17:56:44 GMT 33.099106 -96.048309 22,525 67 422 1344
2021-07-10 17:56:40 GMT 33.096035 -96.057114 22,400 67 421 1408
2021-07-10 17:56:37 GMT 33.093708 -96.063721 22,350 67 421 1344
2021-07-10 17:56:33 GMT 33.090588 -96.072472 22,275 67 420 1280
2021-07-10 17:56:28 GMT 33.086517 -96.083954 22,150 67 418 1152
2021-07-10 17:56:23 GMT 33.083450 -96.092690 22,075 67 417 1152
2021-07-10 17:56:18 GMT 33.079044 -96.105148 21,950 67 415 1600
2021-07-10 17:56:15 GMT 33.076355 -96.112740 21,850 67 415 1664
2021-07-10 17:56:12 GMT 33.075363 -96.115463 21,800 67 415 1664
2021-07-10 17:56:08 GMT 33.071732 -96.125755 21,675 67 414 1664
2021-07-10 17:56:04 GMT 33.067593 -96.137543 21,525 67 413 1600
2021-07-10 17:56:00 GMT 33.061398 -96.154976 21,225 67 413 1536
2021-07-10 17:55:54 GMT 33.061398 -96.154976 21,250 67 412 1472
2021-07-10 17:55:51 GMT 33.059830 -96.159378 21,250 67 412 1408
2021-07-10 17:55:48 GMT 33.057083 -96.167068 21,175 67 411 1344
2021-07-10 17:55:44 GMT 33.054417 -96.174599 21,025 67 410 1152
2021-07-10 17:55:41 GMT 33.052135 -96.181046 21,050 67 409 1088
2021-07-10 17:55:35 GMT 33.046688 -96.196342 20,925 67 406 960
2021-07-10 17:55:31 GMT 33.044781 -96.201668 20,875 67 405 1088
2021-07-10 17:55:25 GMT 33.039986 -96.215233 20,725 67 403 1344
2021-07-10 17:55:20 GMT 33.036728 -96.224426 20,675 67 402 1408
2021-07-10 17:55:16 GMT 33.033829 -96.232544 20,525 67 401 1600
2021-07-10 17:55:13 GMT 33.031860 -96.238037 20,300 67 399 1600
2021-07-10 17:55:10 GMT 33.029606 -96.244553 20,375 67 400 1600
2021-07-10 17:55:07 GMT 33.026733 -96.252647 20,250 67 398 1664
2021-07-10 17:55:03 GMT 33.024353 -96.259293 19,800 67 396 1728
2021-07-10 17:54:59 GMT 33.021561 -96.267204 20,050 67 398 1664
2021-07-10 17:54:55 GMT 33.017944 -96.277481 19,925 67 396 1728
2021-07-10 17:54:50 GMT 33.014832 -96.286324 19,800 67 396 1792
2021-07-10 17:54:46 GMT 33.009567 -96.301376 19,625 67 395 1856
2021-07-10 17:54:43 GMT 33.009567 -96.301376 19,575 67 395 1856
2021-07-10 17:54:40 GMT 33.007446 -96.307388 19,475 67 394 1856
2021-07-10 17:54:35 GMT 33.004578 -96.315384 19,325 65 393 1536
2021-07-10 17:54:32 GMT 33.002136 -96.322128 19,225 64 390 1152
2021-07-10 17:54:29 GMT 32.999950 -96.327843 19,200 64 391 1216
2021-07-10 17:54:24 GMT 32.996552 -96.336143 19,075 63 388 1216
2021-07-10 17:54:21 GMT 32.993107 -96.344322 18,850 62 386 1600
2021-07-10 17:54:18 GMT 32.991199 -96.348694 18,850 62 386 1600
2021-07-10 17:54:14 GMT 32.987457 -96.356911 18,825 61 384 2048
2021-07-10 17:54:11 GMT 32.985241 -96.361755 18,725 61 384 2176
2021-07-10 17:54:07 GMT 32.981873 -96.369156 18,575 61 384 2240
2021-07-10 17:54:03 GMT 32.978954 -96.375488 18,450 61 384 2368
2021-07-10 17:54:00 GMT 32.976425 -96.381081 18,325 61 384 2432
2021-07-10 17:53:57 GMT 32.973083 -96.388329 18,175 61 384 2240
2021-07-10 17:53:54 GMT 32.966061 -96.403740 18,000 61 385 1920
2021-07-10 17:53:49 GMT 32.966061 -96.403740 17,900 61 384 1664
2021-07-10 17:53:46 GMT 32.964619 -96.406937 17,850 61 383 1600
2021-07-10 17:53:40 GMT 32.958099 -96.420944 17,625 61 381 1920
2021-07-10 17:53:36 GMT 32.955917 -96.425735 17,550 61 381 2048
2021-07-10 17:53:32 GMT 32.952438 -96.433266 17,350 61 380 2368
2021-07-10 17:53:29 GMT 32.949581 -96.439560 17,225 61 380 2240
2021-07-10 17:53:26 GMT 32.947159 -96.444885 17,150 61 381 2176
2021-07-10 17:53:23 GMT 32.939480 -96.461639 16,975 61 380 2112
2021-07-10 17:53:18 GMT 32.939480 -96.461639 16,825 61 379 2048
2021-07-10 17:53:15 GMT 32.938175 -96.464554 16,775 61 379 2112
2021-07-10 17:53:11 GMT 32.933945 -96.473747 16,600 61 379 2240
2021-07-10 17:53:06 GMT 32.929916 -96.482536 16,425 61 379 2240
2021-07-10 17:53:02 GMT 32.926346 -96.490448 16,250 61 379 2112
2021-07-10 17:52:57 GMT 32.921631 -96.500664 16,075 61 378 2048
2021-07-10 17:52:54 GMT 32.920624 -96.502861 16,025 61 378 2048
2021-07-10 17:52:50 GMT 32.916809 -96.511307 15,875 61 378 2048
2021-07-10 17:52:45 GMT 32.911011 -96.523903 15,650 61 377 2048
2021-07-10 17:52:40 GMT 32.908054 -96.530472 15,525 61 376 1920
2021-07-10 17:52:36 GMT 32.905563 -96.535934 15,425 61 375 1792
2021-07-10 17:52:33 GMT 32.902817 -96.541916 15,350 61 374 1664
2021-07-10 17:52:29 GMT 32.899349 -96.549477 15,225 61 372 1536
2021-07-10 17:52:25 GMT 32.896408 -96.555984 15,075 61 370 1536
2021-07-10 17:52:22 GMT 32.894093 -96.560966 15,075 61 369 1536
2021-07-10 17:52:19 GMT 32.888306 -96.573616 14,950 61 368 1600
2021-07-10 17:52:16 GMT 32.888306 -96.573616 14,800 61 366 1600
2021-07-10 17:52:13 GMT 32.885712 -96.579300 14,800 61 365 1536
2021-07-10 17:52:09 GMT 32.882675 -96.585976 14,700 61 363 1472
2021-07-10 17:52:04 GMT 32.878590 -96.594933 14,550 61 361 1664
2021-07-10 17:51:59 GMT 32.875237 -96.602226 14,400 61 358 1664
2021-07-10 17:51:55 GMT 32.870911 -96.611794 14,275 61 356 1664
2021-07-10 17:51:51 GMT 32.867928 -96.618309 14,175 61 355 1728
2021-07-10 17:51:47 GMT 32.866150 -96.622284 13,800 61 332 256
2021-07-10 17:51:44 GMT 32.863319 -96.628456 13,900 61 352 2176
2021-07-10 17:51:41 GMT 32.861435 -96.632500 13,900 61 352 2176
2021-07-10 17:51:38 GMT 32.858337 -96.639328 13,650 61 332 256
2021-07-10 17:51:33 GMT 32.854286 -96.648186 13,425 61 353 2688
2021-07-10 17:51:30 GMT 32.852783 -96.651451 13,425 61 353 2688
2021-07-10 17:51:27 GMT 32.849991 -96.657547 13,100 61 332 256
2021-07-10 17:51:22 GMT 32.846741 -96.664581 13,050 61 355 3136
2021-07-10 17:51:19 GMT 32.843536 -96.671616 12,825 61 356 3136
2021-07-10 17:51:16 GMT 32.839066 -96.681427 10,075 61 332 256
2021-07-10 17:51:13 GMT 32.839066 -96.681427 12,425 61 358 2944
2021-07-10 17:51:10 GMT 32.836273 -96.687477 12,300 61 358 2816
2021-07-10 17:51:07 GMT 32.833878 -96.692703 12,225 61 358 2624
2021-07-10 17:51:02 GMT 32.830685 -96.699585 12,050 61 358 2368
2021-07-10 17:50:59 GMT 32.828545 -96.704292 11,850 61 358 2176
2021-07-10 17:50:56 GMT 32.825565 -96.710632 11,825 61 357 2048
2021-07-10 17:50:51 GMT 32.820831 -96.720779 11,625 60 354 1856
2021-07-10 17:50:48 GMT 32.819412 -96.723801 11,575 60 354 1856
2021-07-10 17:50:45 GMT 32.816162 -96.730606 11,450 60 352 1920
2021-07-10 17:50:40 GMT 32.812683 -96.737808 11,300 60 350 2304
2021-07-10 17:50:35 GMT 32.808064 -96.747284 10,075 61 332 256
2021-07-10 17:50:32 GMT 32.801453 -96.760574 10,775 59 350 2880
2021-07-10 17:50:27 GMT 32.801453 -96.760574 10,675 59 350 2880
2021-07-10 17:50:23 GMT 32.799271 -96.764832 10,575 58 350 2304
2021-07-10 17:50:20 GMT 32.795261 -96.772736 10,400 58 349 1856
2021-07-10 17:50:17 GMT 32.793865 -96.775536 10,350 59 347 1728
2021-07-10 17:50:14 GMT 32.790791 -96.781593 10,250 59 346 1600
2021-07-10 17:50:11 GMT 32.788330 -96.786476 10,200 59 343 1472
2021-07-10 17:50:07 GMT 32.785172 -96.792793 10,100 59 339 1216
2021-07-10 17:50:02 GMT 32.781898 -96.799362 10,050 60 336 512
2021-07-10 17:49:59 GMT 32.779015 -96.805641 10,025 63 329 -128
2021-07-10 17:49:56 GMT 32.776501 -96.811745 10,050 65 324 -384
2021-07-10 17:49:53 GMT 32.774963 -96.815971 10,050 86 293 2432
2021-07-10 17:49:49 GMT 32.770569 -96.823433 9,000 86 293 2432
2021-07-10 17:49:48 GMT 32.770481 -96.825027 9,000 86 293 2432
2021-07-10 17:49:47 GMT 32.770309 -96.828239 9,000 86 293 2432
2021-07-10 17:49:45 GMT 32.770222 -96.829842 9,000 86 293 2432
2021-07-10 17:49:44 GMT 32.770050 -96.833038 9,000 86 293 2432
2021-07-10 17:49:42 GMT 32.769958 -96.834641 9,000 86 293 2432
2021-07-10 17:49:41 GMT 32.769878 -96.836243 9,000 86 293 2432
2021-07-10 17:49:39 GMT 32.769699 -96.839447 9,000 86 293 2432
2021-07-10 17:49:38 GMT 32.769611 -96.841049 9,000 86 293 2432
2021-07-10 17:49:36 GMT 32.769440 -96.844254 9,000 86 293 2432
2021-07-10 17:49:35 GMT 32.769348 -96.845848 9,000 86 293 2432
2021-07-10 17:49:34 GMT 32.769272 -96.847458 9,000 86 293 2432
2021-07-10 17:49:32 GMT 32.769089 -96.850662 9,000 86 293 2432
2021-07-10 17:49:31 GMT 32.768921 -96.853859 9,000 86 293 2432
2021-07-10 17:49:29 GMT 32.768829 -96.855461 9,000 86 293 2432
2021-07-10 17:49:28 GMT 32.768742 -96.857071 9,000 86 293 2432
2021-07-10 17:49:26 GMT 32.768570 -96.860268 9,000 86 293 2432
2021-07-10 17:49:25 GMT 32.768478 -96.861870 9,000 86 293 2432
2021-07-10 17:49:24 GMT 32.768311 -96.865082 9,000 86 293 2432
2021-07-10 17:49:22 GMT 32.768219 -96.866676 9,000 86 293 2432
2021-07-10 17:49:21 GMT 32.768131 -96.868279 9,000 86 293 2432
2021-07-10 17:49:19 GMT 32.767960 -96.871483 9,000 86 293 2432
2021-07-10 17:49:18 GMT 32.767849 -96.873337 9,000 86 289 2432
2021-07-10 17:49:16 GMT 32.767670 -96.876511 9,000 86 289 2432
2021-07-10 17:49:15 GMT 32.767578 -96.878090 9,000 86 289 2432
2021-07-10 17:49:14 GMT 32.767490 -96.879677 9,000 86 289 2432
2021-07-10 17:49:12 GMT 32.767090 -96.883041 8,800 86 287 2432
2021-07-10 17:49:10 GMT 32.766941 -96.886192 8,800 86 287 2432
2021-07-10 17:49:09 GMT 32.766869 -96.887756 8,800 86 287 2432
2021-07-10 17:49:08 GMT 32.766762 -96.889687 8,600 86 283 2432
2021-07-10 17:49:06 GMT 32.766609 -96.892776 8,600 86 283 3904
2021-07-10 17:49:05 GMT 32.766529 -96.894333 8,600 86 283 3904
2021-07-10 17:49:03 GMT 32.767132 -96.896690 8,400 84 290 3904
2021-07-10 17:49:00 GMT 32.766800 -96.901451 8,400 84 290 3904
2021-07-10 17:48:59 GMT 32.766979 -96.903091 8,000 84 287 3904
2021-07-10 17:48:58 GMT 32.766708 -96.906212 8,000 84 287 3904
2021-07-10 17:48:56 GMT 32.766579 -96.909393 8,000 84 284 3904
2021-07-10 17:48:54 GMT 32.766312 -96.912491 8,000 84 284 3904
2021-07-10 17:48:53 GMT 32.766171 -96.914040 8,000 84 284 3904
2021-07-10 17:48:51 GMT 32.766041 -96.915588 8,000 84 284 3904
2021-07-10 17:48:50 GMT 32.765999 -96.916992 7,800 86 285 3904
2021-07-10 17:48:48 GMT 32.765781 -96.920113 7,800 86 285 3904
2021-07-10 17:48:47 GMT 32.765659 -96.921669 7,800 86 285 3904
2021-07-10 17:48:46 GMT 32.765480 -96.924553 7,600 88 287 3904
2021-07-10 17:48:44 GMT 32.765411 -96.926117 7,600 88 287 3904
2021-07-10 17:48:42 GMT 32.765282 -96.929268 7,600 88 287 3904
2021-07-10 17:48:41 GMT 32.765072 -96.930717 7,300 92 286 3904
2021-07-10 17:48:40 GMT 32.765091 -96.933853 7,300 92 286 3904
2021-07-10 17:48:38 GMT 32.765099 -96.935417 7,300 92 286 3904
2021-07-10 17:48:37 GMT 32.765110 -96.936989 7,300 92 286 3904
2021-07-10 17:48:35 GMT 32.764870 -96.940071 6,900 98 284 3904
2021-07-10 17:48:33 GMT 32.765129 -96.943169 6,900 98 284 3904
2021-07-10 17:48:32 GMT 32.764721 -96.944878 6,900 104 280 3904
2021-07-10 17:48:31 GMT 32.764980 -96.946381 6,900 104 280 3904
2021-07-10 17:48:29 GMT 32.765511 -96.949379 6,900 104 280 3904
2021-07-10 17:48:28 GMT 32.765770 -96.950890 6,900 104 280 3904
2021-07-10 17:48:26 GMT 32.765732 -96.953827 6,400 110 282 3904
2021-07-10 17:48:25 GMT 32.766151 -96.955292 6,400 110 282 3904
2021-07-10 17:48:24 GMT 32.766571 -96.956757 6,400 110 282 3904
2021-07-10 17:48:22 GMT 32.767101 -96.959969 6,400 115 274 3904
2021-07-10 17:48:21 GMT 32.767620 -96.961342 6,400 115 274 3904
2021-07-10 17:48:19 GMT 32.768669 -96.964081 6,400 115 274 3904
2021-07-10 17:48:18 GMT 32.769241 -96.965752 6,400 117 265 3904
2021-07-10 17:48:16 GMT 32.770031 -96.968323 6,200 121 268 3904
2021-07-10 17:48:15 GMT 32.770660 -96.969589 6,200 121 268 3904
2021-07-10 17:48:14 GMT 32.771290 -96.970863 6,200 121 268 3904
2021-07-10 17:48:12 GMT 32.772049 -96.973763 5,600 130 266 3904
2021-07-10 17:48:11 GMT 32.772820 -96.974892 5,600 130 266 3904
2021-07-10 17:48:09 GMT 32.774429 -96.977737 5,600 133 251 3904
2021-07-10 17:48:08 GMT 32.774681 -96.978981 5,600 138 259 3904
2021-07-10 17:48:07 GMT 32.776428 -96.980927 5,600 138 259 3904
2021-07-10 17:48:05 GMT 32.777302 -96.981903 5,600 138 259 1600
2021-07-10 17:48:04 GMT 32.778221 -96.983490 5,500 141 246 1600
2021-07-10 17:48:02 GMT 32.779549 -96.985321 5,200 146 257 1600
2021-07-10 17:48:00 GMT 32.781429 -96.987587 5,200 149 250 1600
2021-07-10 17:47:59 GMT 32.782421 -96.988312 5,200 149 250 1600
2021-07-10 17:47:58 GMT 32.783020 -96.989120 5,000 153 260 1600
2021-07-10 17:47:56 GMT 32.785149 -96.990471 5,000 153 260 1600
2021-07-10 17:47:55 GMT 32.786228 -96.991737 4,900 156 251 1600
2021-07-10 17:47:53 GMT 32.788311 -96.993263 4,800 158 247 1600
2021-07-10 17:47:52 GMT 32.789379 -96.993767 4,800 158 247 1600
2021-07-10 17:47:51 GMT 32.790440 -96.994270 4,800 158 247 1600
2021-07-10 17:47:49 GMT 32.792278 -96.995651 4,500 160 253 1600
2021-07-10 17:47:48 GMT 32.793388 -96.996109 4,500 160 253 1600
2021-07-10 17:47:47 GMT 32.794491 -96.996582 4,500 160 253 1600
2021-07-10 17:47:45 GMT 32.796749 -96.997543 4,300 160 245 1600
2021-07-10 17:47:44 GMT 32.797821 -96.998001 4,300 160 245 1600
2021-07-10 17:47:42 GMT 32.799961 -96.998917 4,300 160 245 1600
2021-07-10 17:47:41 GMT 32.801220 -96.999496 4,300 159 235 1600
2021-07-10 17:47:39 GMT 32.803009 -97.000130 4,100 159 244 1600
2021-07-10 17:47:38 GMT 32.804062 -97.000610 4,100 159 244 1600
2021-07-10 17:47:36 GMT 32.806381 -97.001869 4,100 159 230 1600
2021-07-10 17:47:35 GMT 32.807350 -97.002159 4,000 158 229 1600
2021-07-10 17:47:34 GMT 32.809319 -97.003067 4,000 158 229 1600
2021-07-10 17:47:33 GMT 32.810551 -97.003799 3,900 158 216 1600
2021-07-10 17:47:31 GMT 32.811722 -97.004051 3,900 156 209 1600
2021-07-10 17:47:30 GMT 32.813499 -97.004951 3,900 156 209 1600
2021-07-10 17:47:28 GMT 32.814388 -97.005402 3,900 156 209 1600
2021-07-10 17:47:27 GMT 32.816608 -97.006393 3,600 154 193 1600
2021-07-10 17:47:25 GMT 32.817421 -97.006844 3,600 154 193 1600
2021-07-10 17:47:24 GMT 32.819149 -97.007759 3,600 154 190 1600
2021-07-10 17:47:21 GMT 32.820400 -97.008453 3,600 153 212 1600
2021-07-10 17:47:20 GMT 32.821289 -97.008972 3,600 153 212 1600
2021-07-10 17:47:19 GMT 32.822170 -97.009483 3,600 153 212 1600
2021-07-10 17:47:18 GMT 32.823910 -97.010468 3,500 153 213 1600
2021-07-10 17:47:16 GMT 32.824780 -97.010979 3,500 153 214 1600
2021-07-10 17:47:15 GMT 32.825680 -97.011528 3,500 153 212 1600
2021-07-10 17:47:14 GMT 32.827530 -97.012573 3,500 151 200 1600
2021-07-10 17:47:11 GMT 32.829170 -97.013641 3,450 152 204 1600
2021-07-10 17:47:10 GMT 32.830029 -97.014153 3,400 152 202 1600
2021-07-10 17:47:08 GMT 32.831661 -97.015221 3,375 152 202 1600
2021-07-10 17:47:07 GMT 32.832500 -97.015717 3,375 152 200 1600
2021-07-10 17:47:06 GMT 32.834251 -97.016800 3,300 152 186 3040
2021-07-10 17:47:04 GMT 32.834961 -97.017227 3,300 151 193 3040
2021-07-10 17:47:03 GMT 32.836529 -97.018257 3,200 151 196 3040
2021-07-10 17:47:01 GMT 32.837421 -97.018784 3,200 150 188 3040
2021-07-10 17:47:00 GMT 32.838879 -97.019737 3,100 149 192 3040
2021-07-10 17:46:58 GMT 32.839668 -97.020233 3,100 149 192 3040
2021-07-10 17:46:57 GMT 32.840439 -97.020737 3,100 149 192 3040
2021-07-10 17:46:55 GMT 32.841980 -97.021812 3,100 150 189 3040
2021-07-10 17:46:54 GMT 32.842709 -97.022301 3,025 151 189 3040
2021-07-10 17:46:53 GMT 32.844269 -97.023270 3,000 152 187 3040
2021-07-10 17:46:51 GMT 32.845020 -97.023727 2,975 152 186 3040
2021-07-10 17:46:50 GMT 32.845779 -97.024208 3,000 154 184 3040
2021-07-10 17:46:49 GMT 32.847309 -97.025108 2,925 158 179 3040
2021-07-10 17:46:47 GMT 32.848099 -97.025482 2,900 159 177 3040
2021-07-10 17:46:46 GMT 32.849579 -97.026230 2,800 164 175 3040
2021-07-10 17:46:44 GMT 32.850380 -97.026512 2,800 166 172 3040
2021-07-10 17:46:43 GMT 32.851170 -97.026756 2,800 167 169 3040
2021-07-10 17:46:41 GMT 32.852711 -97.027191 2,800 170 166 3040
2021-07-10 17:46:40 GMT 32.853409 -97.027390 2,750 171 168 3040
2021-07-10 17:46:38 GMT 32.854988 -97.027679 2,700 174 162 3040
2021-07-10 17:46:37 GMT 32.855701 -97.027786 2,675 175 164 3040
2021-07-10 17:46:35 GMT 32.857231 -97.027977 2,650 176 160 3040
2021-07-10 17:46:34 GMT 32.858002 -97.028000 2,650 175 157 3040
2021-07-10 17:46:32 GMT 32.859470 -97.028152 2,600 177 152 3040
2021-07-10 17:46:31 GMT 32.860149 -97.028160 2,525 176 155 3040
2021-07-10 17:46:30 GMT 32.861629 -97.028236 2,525 176 151 3040
2021-07-10 17:46:28 GMT 32.862301 -97.028297 2,500 177 153 3040
2021-07-10 17:46:27 GMT 32.863750 -97.028389 2,450 176 147 3040
2021-07-10 17:46:25 GMT 32.864410 -97.028442 2,400 176 150 3040
2021-07-10 17:46:24 GMT 32.865089 -97.028473 2,400 176 149 3040
2021-07-10 17:46:22 GMT 32.866440 -97.028580 2,350 178 149 3040
2021-07-10 17:46:21 GMT 32.867130 -97.028580 2,325 177 150 3040
2021-07-10 17:46:19 GMT 32.868500 -97.028664 2,275 177 150 3040
2021-07-10 17:46:18 GMT 32.869202 -97.028709 2,200 177 149 3040
2021-07-10 17:46:17 GMT 32.869888 -97.028709 2,200 176 149 3040
2021-07-10 17:46:15 GMT 32.871231 -97.028831 2,100 177 146 3040
2021-07-10 17:46:14 GMT 32.871880 -97.028877 2,100 177 150 3040
2021-07-10 17:46:12 GMT 32.873268 -97.028976 2,000 177 148 3040
2021-07-10 17:46:11 GMT 32.873989 -97.029030 2,000 178 142 3040
2021-07-10 17:46:10 GMT 32.875278 -97.029068 1,925 176 145 3040
2021-07-10 17:46:08 GMT 32.875950 -97.029121 1,725 176 144 3040
2021-07-10 17:46:07 GMT 32.877281 -97.029213 1,725 176 146 3040
2021-07-10 17:46:05 GMT 32.877960 -97.029320 1,725 178 146 608
2021-07-10 17:46:04 GMT 32.878658 -97.029289 1,725 176 141 608
2021-07-10 17:46:02 GMT 32.879978 -97.029350 1,550 175 145 608
2021-07-10 17:46:01 GMT 32.881340 -97.029427 1,550 176 141 608
2021-07-10 17:45:59 GMT 32.881989 -97.029449 1,325 176 145 608
2021-07-10 17:45:58 GMT 32.882648 -97.029518 1,325 177 148 608
2021-07-10 17:45:56 GMT 32.884010 -97.029572 1,325 177 145 608
2021-07-10 17:45:55 GMT 32.884682 -97.029640 1,325 179 144 608
2021-07-10 17:45:54 GMT 32.886021 -97.029701 1,250 178 147 608
2021-07-10 17:45:52 GMT 32.886681 -97.029732 1,175 179 149 608
2021-07-10 17:45:50 GMT 32.888039 -97.029732 1,075 178 149 608
2021-07-10 17:45:49 GMT 32.888710 -97.029793 1,075 179 153 608
2021-07-10 17:45:47 GMT 32.890091 -97.029831 1,000 180 149 608
2021-07-10 17:45:45 GMT 32.891449 -97.029839 850 179 147 608
2021-07-10 17:45:44 GMT 32.892792 -97.029869 850 179 154 608
2021-07-10 17:45:42 GMT 32.893501 -97.029861 725 178 153 608
2021-07-10 17:45:40 GMT 32.894901 -97.029922 725 180 149 608
2021-07-10 17:45:39 GMT 32.896240 -97.029900 650 178 154 608
2021-07-10 17:45:37 GMT 32.896961 -97.029877 625 178 152 608
2021-07-10 17:45:36 GMT 32.898361 -97.029938 575 179 150 608
2021-07-10 17:45:34 GMT 32.899029 -97.029968 550 179 151 608
2021-07-10 17:45:33 GMT 32.899712 -97.029991 500 180 151 608
2021-07-10 17:45:32 GMT 32.901119 -97.029999 475 181 142 -192
2021-07-10 17:45:30 GMT 32.901760 -97.029984 475 180 141 -192
2021-07-10 17:45:29 GMT 32.903061 -97.029953 525 180 134 0
2021-07-10 17:45:27 GMT 32.903671 -97.029930 525 180 131 0
2021-07-10 17:45:26 GMT 32.904289 -97.029930 525 180 127 0
2021-07-10 17:45:25 GMT 32.905460 -97.029953 525 180 119 -128
2021-07-10 17:45:23 GMT 32.906021 -97.029930 525 180 116 -128
2021-07-10 17:45:22 GMT 32.906570 -97.029930 525 180 111 -128
2021-07-10 17:45:20 GMT 32.907581 -97.029900 525 179 104 -128
2021-07-10 17:45:19 GMT 32.908051 -97.029922 525 179 100 416
2021-07-10 17:45:17 GMT 32.909012 -97.029922 0 180 88 416
2021-07-10 17:45:16 GMT 32.909420 -97.029907 0 179 85 416
2021-07-10 17:45:15 GMT 32.910198 -97.029922 0 180 77 160
2021-07-10 17:45:13 GMT 32.910568 -97.029907 0 180 73 160
2021-07-10 17:45:12 GMT 32.911240 -97.029900 0 179 64 160
2021-07-10 17:45:10 GMT 32.911579 -97.029900 0 179 56 160
2021-07-10 17:45:08 GMT 32.912109 -97.029907 0 182 48 160
2021-07-10 17:45:07 GMT 32.912331 -97.029907 0 181 44 160
2021-07-10 17:45:05 GMT 32.912739 -97.029892 0 180 35 0
2021-07-10 17:45:04 GMT 32.912949 -97.029900 0 182 25 0
2021-07-10 17:45:03 GMT 32.913078 -97.029892 0 181 22 0
2021-07-10 17:45:01 GMT 32.913330 -97.029869 0 177 12 0
2021-07-10 17:45:00 GMT 32.913391 -97.029869 0 175 10 0
2021-07-10 17:44:59 GMT 32.913490 -97.029877 0 176 8 0
2021-07-10 17:44:57 GMT 32.913540 -97.029869 0 176 6 0
2021-07-10 17:44:55 GMT 32.913609 -97.029877 0 170 4 0
2021-07-10 17:44:54 GMT 32.913639 -97.029877 0 170 2 0
2021-07-10 17:44:53 GMT 32.913651 -97.029869 0 170 2 0
2021-07-10 17:44:51 GMT 32.913681 -97.029877 0 170 0 0
2021-07-10 17:44:50 GMT 32.913689 -97.029877 0 170 0 0
2021-07-10 17:44:48 GMT 32.913712 -97.029869 0 174 2 0
2021-07-10 17:44:46 GMT 32.913700 -97.029869 0 177 3 0
2021-07-10 17:44:44 GMT 32.913712 -97.029877 0 190 6 0
2021-07-10 17:44:43 GMT 32.913750 -97.029892 0 196 4 0
2021-07-10 17:44:42 GMT 32.913769 -97.029877 0 183 8 0
2021-07-10 17:44:40 GMT 32.913799 -97.029861 0 180 8 0
2021-07-10 17:44:39 GMT 32.913830 -97.029869 0 175 8 0
2021-07-10 17:44:37 GMT 32.913910 -97.029869 0 150 7 0
2021-07-10 17:44:36 GMT 32.913929 -97.029846 0 140 8 0
2021-07-10 17:44:34 GMT 32.914009 -97.029877 0 118 8 0
2021-07-10 17:44:33 GMT 32.914040 -97.029907 0 109 10 0
2021-07-10 17:44:32 GMT 32.914089 -97.029991 0 96 10 0
2021-07-10 17:44:30 GMT 32.914108 -97.030029 0 87 11 0
2021-07-10 17:44:29 GMT 32.914108 -97.030144 0 88 12 0
2021-07-10 17:44:27 GMT 32.914101 -97.030220 0 92 10 0
2021-07-10 17:44:26 GMT 32.914089 -97.030281 0 96 11 0
2021-07-10 17:44:24 GMT 32.914108 -97.030388 0 91 12 0
2021-07-10 17:44:23 GMT 32.914108 -97.030457 0 90 13 0
2021-07-10 17:44:21 GMT 32.914101 -97.030586 0 95 10 0
2021-07-10 17:44:20 GMT 32.914101 -97.030647 0 96 10 0
2021-07-10 17:44:19 GMT 32.914108 -97.030708 0 91 9 0
2021-07-10 17:44:18 GMT 32.914120 -97.030762 0 88 9 0
2021-07-10 17:44:16 GMT 32.914139 -97.030861 0 84 9 0
2021-07-10 17:44:15 GMT 32.914120 -97.030922 0 90 8 0
2021-07-10 17:44:14 GMT 32.914108 -97.030983 0 97 7 0
2021-07-10 17:44:13 GMT 32.914108 -97.031059 0 103 5 0
2021-07-10 17:44:11 GMT 32.914108 -97.031082 0 100 6 0
2021-07-10 17:44:10 GMT 32.914120 -97.031120 0 94 5 0
2021-07-10 17:44:08 GMT 32.914131 -97.031197 0 89 1 0
2021-07-10 17:44:07 GMT 32.914139 -97.031189 0 89 3 0
2021-07-10 17:44:06 GMT 32.914131 -97.031219 0 89 3 0
2021-07-10 17:44:04 GMT 32.914108 -97.031227 0 89 3 0
2021-07-10 17:44:02 GMT 32.914139 -97.031258 0 89 3 0
2021-07-10 17:44:01 GMT 32.914120 -97.031273 0 89 3 0
2021-07-10 17:44:00 GMT 32.914120 -97.031311 0 89 0 0
2021-07-10 17:43:59 GMT 32.914108 -97.031326 0 89 0 0
2021-07-10 17:43:57 GMT 32.914120 -97.031319 0 89 3 0
2021-07-10 17:43:56 GMT 32.914131 -97.031326 0 88 3 0
2021-07-10 17:43:54 GMT 32.914131 -97.031349 0 88 4 0
2021-07-10 17:43:53 GMT 32.914131 -97.031380 0 95 3 0
2021-07-10 17:43:52 GMT 32.914108 -97.031387 0 97 5 0
2021-07-10 17:43:50 GMT 32.914120 -97.031441 0 93 6 0
2021-07-10 17:43:49 GMT 32.914120 -97.031448 0 91 7 0
2021-07-10 17:43:47 GMT 32.914108 -97.031548 0 70 5 0
2021-07-10 17:43:46 GMT 32.914150 -97.031563 0 70 6 0
2021-07-10 17:43:45 GMT 32.914150 -97.031631 0 49 7 0
2021-07-10 17:43:43 GMT 32.914131 -97.031677 0 42 5 0
2021-07-10 17:43:42 GMT 32.914120 -97.031693 0 37 6 0
2021-07-10 17:43:40 GMT 32.914089 -97.031731 0 27 8 0
2021-07-10 17:43:38 GMT 32.914028 -97.031799 0 12 7 0
2021-07-10 17:43:37 GMT 32.914009 -97.031822 0 7 8 0
2021-07-10 17:43:36 GMT 32.913940 -97.031837 0 358 9 0
2021-07-10 17:43:34 GMT 32.913879 -97.031837 0 3 7 0
2021-07-10 17:43:33 GMT 32.913879 -97.031830 0 6 11 0
2021-07-10 17:43:32 GMT 32.913818 -97.031837 0 6 10 0
2021-07-10 17:43:30 GMT 32.913738 -97.031868 0 357 11 0
2021-07-10 17:43:29 GMT 32.913689 -97.031860 0 359 11 0
2021-07-10 17:43:28 GMT 32.913601 -97.031868 0 356 11 0
2021-07-10 17:43:26 GMT 32.913551 -97.031853 0 359 11 0
2021-07-10 17:43:25 GMT 32.913490 -97.031860 0 358 11 0
2021-07-10 17:43:24 GMT 32.913441 -97.031853 0 3 11 0
2021-07-10 17:43:22 GMT 32.913300 -97.031868 0 359 12 0
2021-07-10 17:43:20 GMT 32.913261 -97.031883 0 358 13 0
2021-07-10 17:43:19 GMT 32.913200 -97.031868 0 355 14 0
2021-07-10 17:43:17 GMT 32.913059 -97.031860 0 359 13 0
2021-07-10 17:43:16 GMT 32.912991 -97.031807 0 6 12 0
2021-07-10 17:43:14 GMT 32.912880 -97.031837 0 0 13 0
2021-07-10 17:43:13 GMT 32.912819 -97.031853 0 359 12 0
2021-07-10 17:43:11 GMT 32.912701 -97.031837 0 3 12 0
2021-07-10 17:43:10 GMT 32.912659 -97.031830 0 4 13 0
2021-07-10 17:43:09 GMT 32.912609 -97.031837 0 4 14 0
2021-07-10 17:43:07 GMT 32.912491 -97.031860 0 359 15 0
2021-07-10 17:43:06 GMT 32.912418 -97.031853 0 7 14 0
2021-07-10 17:43:05 GMT 32.912350 -97.031860 0 6 14 0
2021-07-10 17:43:03 GMT 32.912201 -97.031898 0 353 13 0
2021-07-10 17:43:02 GMT 32.912151 -97.031883 0 357 13 0
2021-07-10 17:43:00 GMT 32.912041 -97.031868 0 357 14 0
2021-07-10 17:42:58 GMT 32.911919 -97.031860 0 0 14 0
2021-07-10 17:42:57 GMT 32.911831 -97.031868 0 357 11 0
2021-07-10 17:42:56 GMT 32.911789 -97.031853 0 3 12 0
2021-07-10 17:42:54 GMT 32.911671 -97.031868 0 0 12 0
2021-07-10 17:42:53 GMT 32.911610 -97.031868 0 0 11 0
2021-07-10 17:42:52 GMT 32.911510 -97.031868 0 0 11 0
2021-07-10 17:42:50 GMT 32.911480 -97.031860 0 4 12 0
2021-07-10 17:42:49 GMT 32.911419 -97.031860 0 6 12 0
2021-07-10 17:42:47 GMT 32.911320 -97.031868 0 6 13 0
2021-07-10 17:42:46 GMT 32.911282 -97.031883 0 1 16 0
2021-07-10 17:42:45 GMT 32.911201 -97.031898 0 359 15 0
2021-07-10 17:42:44 GMT 32.911079 -97.031914 0 356 17 0
2021-07-10 17:42:42 GMT 32.911018 -97.031891 0 358 20 0
2021-07-10 17:42:41 GMT 32.910831 -97.031868 0 1 18 0
2021-07-10 17:42:39 GMT 32.910728 -97.031891 0 355 16 0
2021-07-10 17:42:38 GMT 32.910641 -97.031898 0 351 15 0
2021-07-10 17:42:36 GMT 32.910511 -97.031860 0 3 18 0
2021-07-10 17:42:35 GMT 32.910412 -97.031883 0 356 16 0
2021-07-10 17:42:34 GMT 32.910259 -97.031868 0 0 16 0
2021-07-10 17:42:32 GMT 32.910198 -97.031860 0 2 17 0
2021-07-10 17:42:30 GMT 32.910042 -97.031891 0 355 16 0
2021-07-10 17:42:29 GMT 32.909962 -97.031883 0 357 15 0
2021-07-10 17:42:28 GMT 32.909809 -97.031868 0 1 14 0
2021-07-10 17:42:26 GMT 32.909752 -97.031860 0 4 14 0
2021-07-10 17:42:25 GMT 32.909691 -97.031891 0 356 14 0
2021-07-10 17:42:24 GMT 32.909531 -97.031868 0 2 11 0
2021-07-10 17:42:22 GMT 32.909489 -97.031883 0 359 13 0
2021-07-10 17:42:21 GMT 32.909439 -97.031883 0 358 13 0
2021-07-10 17:42:19 GMT 32.909321 -97.031868 0 4 13 0
2021-07-10 17:42:18 GMT 32.909260 -97.031883 0 357 13 0
2021-07-10 17:42:16 GMT 32.909142 -97.031883 0 359 14 0
2021-07-10 17:42:15 GMT 32.909081 -97.031868 0 1 14 0
2021-07-10 17:42:14 GMT 32.909012 -97.031883 0 358 14 0
2021-07-10 17:42:12 GMT 32.908878 -97.031868 0 0 13 0
2021-07-10 17:42:11 GMT 32.908821 -97.031860 0 2 12 0
2021-07-10 17:42:09 GMT 32.908710 -97.031868 0 358 12 0
2021-07-10 17:42:08 GMT 32.908649 -97.031868 0 357 13 0
2021-07-10 17:42:07 GMT 32.908600 -97.031860 0 0 14 0
2021-07-10 17:42:06 GMT 32.908459 -97.031860 0 5 12 0
2021-07-10 17:42:04 GMT 32.908409 -97.031860 0 6 13 0
2021-07-10 17:42:02 GMT 32.908298 -97.031883 0 1 15 0
2021-07-10 17:42:01 GMT 32.908218 -97.031891 0 1 15 0
2021-07-10 17:42:00 GMT 32.908161 -97.031914 0 354 16 0
2021-07-10 17:41:58 GMT 32.908009 -97.031868 0 2 15 0
2021-07-10 17:41:57 GMT 32.907940 -97.031883 0 0 15 0
2021-07-10 17:41:56 GMT 32.907871 -97.031883 0 2 15 0
2021-07-10 17:41:54 GMT 32.907719 -97.031891 0 357 13 0
2021-07-10 17:41:53 GMT 32.907661 -97.031898 0 355 14 0
2021-07-10 17:41:51 GMT 32.907539 -97.031868 0 1 16 0
2021-07-10 17:41:50 GMT 32.907459 -97.031868 0 3 15 0
2021-07-10 17:41:49 GMT 32.907330 -97.031891 0 0 16 0
2021-07-10 17:41:47 GMT 32.907242 -97.031883 0 2 15 0
2021-07-10 17:41:46 GMT 32.907101 -97.031891 0 1 14 0
2021-07-10 17:41:44 GMT 32.907021 -97.031914 0 352 13 0
2021-07-10 17:41:43 GMT 32.906960 -97.031883 0 2 13 0
2021-07-10 17:41:41 GMT 32.906860 -97.031891 0 2 17 0
2021-07-10 17:41:40 GMT 32.906780 -97.031898 0 359 17 0
2021-07-10 17:41:39 GMT 32.906700 -97.031921 0 354 17 0
2021-07-10 17:41:37 GMT 32.906540 -97.031883 0 5 15 0
2021-07-10 17:41:35 GMT 32.906410 -97.031891 0 4 17 0
2021-07-10 17:41:34 GMT 32.906319 -97.031898 0 2 15 0
2021-07-10 17:41:32 GMT 32.906200 -97.031929 0 355 19 0
2021-07-10 17:41:31 GMT 32.906101 -97.031898 0 359 16 0
2021-07-10 17:41:30 GMT 32.906029 -97.031898 0 357 16 0
2021-07-10 17:41:28 GMT 32.905869 -97.031891 0 2 17 0
2021-07-10 17:41:27 GMT 32.905781 -97.031898 0 358 16 0
2021-07-10 17:41:25 GMT 32.905659 -97.031898 0 358 18 0
2021-07-10 17:41:24 GMT 32.905590 -97.031898 0 0 20 0
2021-07-10 17:41:23 GMT 32.905479 -97.031891 0 2 18 0
2021-07-10 17:41:22 GMT 32.905399 -97.031883 0 7 18 0
2021-07-10 17:41:20 GMT 32.905231 -97.031921 0 0 16 0
2021-07-10 17:41:18 GMT 32.905071 -97.031929 0 357 16 32
2021-07-10 17:41:17 GMT 32.904999 -97.031929 0 355 16 32
2021-07-10 17:41:15 GMT 32.904850 -97.031921 0 356 17 32
2021-07-10 17:41:14 GMT 32.904770 -97.031914 0 356 18 32
2021-07-10 17:41:13 GMT 32.904690 -97.031914 0 357 17 32
2021-07-10 17:41:11 GMT 32.904530 -97.031898 0 357 16 32
2021-07-10 17:41:10 GMT 32.904449 -97.031883 0 1 16 32
2021-07-10 17:41:09 GMT 32.904308 -97.031891 0 0 18 32
2021-07-10 17:41:07 GMT 32.904221 -97.031883 0 2 17 32
2021-07-10 17:41:06 GMT 32.904140 -97.031883 0 4 16 32
2021-07-10 17:41:05 GMT 32.903980 -97.031914 0 358 15 32
2021-07-10 17:41:03 GMT 32.903831 -97.031891 0 4 13
2021-07-10 17:41:01 GMT 32.903759 -97.031914 0 1 12
2021-07-10 17:41:00 GMT 32.903721 -97.031921 0 358 14
2021-07-10 17:40:59 GMT 32.903580 -97.031914 0 0 13
2021-07-10 17:40:57 GMT 32.903519 -97.031898 0 1 13
2021-07-10 17:40:56 GMT 32.903461 -97.031914 0 1 13
2021-07-10 17:40:54 GMT 32.903332 -97.031914 0 0 12
2021-07-10 17:40:53 GMT 32.903290 -97.031929 0 357 13
2021-07-10 17:40:52 GMT 32.903160 -97.031914 0 2 13
2021-07-10 17:40:50 GMT 32.903080 -97.031914 0 3 11
2021-07-10 17:40:48 GMT 32.902988 -97.031929 0 357 12
2021-07-10 17:40:47 GMT 32.902939 -97.031937 0 356 12
2021-07-10 17:40:45 GMT 32.902821 -97.031921 0 1 12
2021-07-10 17:40:44 GMT 32.902760 -97.031914 0 1 11
2021-07-10 17:40:42 GMT 32.902649 -97.031921 0 357 11
2021-07-10 17:40:41 GMT 32.902611 -97.031921 0 357 12
2021-07-10 17:40:40 GMT 32.902561 -97.031921 0 359 13
2021-07-10 17:40:38 GMT 32.902420 -97.031929 0 359 13
2021-07-10 17:40:37 GMT 32.902328 -97.031929 0 358 12

Making use of Plane Finder data

You are free to use the raw flight data, aircraft information and images provided in this report for your own purposes provided the data is correctly attributed to Plane Finder. We ask that you please credit Plane Finder and link to planefinder.net in close proximity to the content.

Optionally one of the following logos (no smaller then 150x24px) can be used and must link to planefinder.net

Embedding the Plane Finder map

You are welcome to embed the Plane Finder playback map on your website to offer visitors a more interactive experience. We suggest using the following HTML code:

<iframe src="//planefinder.net/data/report/AA2910-N817AW-7700-squawk-2021-07-10/map" width="800" height="600" seamless="seamless"></iframe>

Where our data comes from

Plane Finder has a global network of data feeds and antenna radars that receive data broadcast directly from aircraft. The primary technologies used are ADS-B and MLAT. We also show feeds from the FAA and a FLARM glider feed.

Click here to find out more about the Plane Finder network.

How we collect our data